Observation data for Endee on 06/03/2020      Previous  Date  Next       Current Mesonet Observations  Soil Data  Daily Summary Page  Observations in Plain Language
KEN1 030500Z 07010KT 24/12 A3011 RMK A01 T02420116  RH  045%=      5-min Rain = 0
KEN1 030501Z 08010KT 24/12 A3011 RMK A01 T02410116  RH  045%=      5-min Rain = 0
KEN1 030502Z 08009KT 24/12 A3011 RMK A01 T02410116  RH  046%=      5-min Rain = 0
KEN1 030503Z 08007KT 24/12 A3011 RMK A01 T02400116  RH  046%=      5-min Rain = 0
KEN1 030504Z 08007KT 24/12 A3011 RMK A01 T02400116  RH  046%=      5-min Rain = 0
KEN1 030505Z 05010KT 24/11 A3011 RMK A01 T02400114  RH  045%=      5-min Rain = 0
KEN1 030506Z 04008KT 24/11 A3012 RMK A01 T02440112  RH  044%=      5-min Rain = 0
KEN1 030507Z 03006KT 25/11 A3012 RMK A01 T02480111  RH  042%=      5-min Rain = 0
KEN1 030508Z 01006KT 25/11 A3012 RMK A01 T02510112  RH  042%=      5-min Rain = 0
KEN1 030509Z 00004KT 25/11 A3012 RMK A01 T02530112  RH  041%=      5-min Rain = 0
KEN1 030510Z 35002KT 25/11 A3012 RMK A01 T02540112  RH  041%=      5-min Rain = 0
KEN1 030511Z 26003KT 26/11 A3012 RMK A01 T02550112  RH  041%=      5-min Rain = 0
KEN1 030512Z 23003KT 25/11 A3012 RMK A01 T02540113  RH  041%=      5-min Rain = 0
KEN1 030513Z 18004KT 25/11 A3012 RMK A01 T02520112  RH  041%=      5-min Rain = 0
KEN1 030514Z 17004KT 25/11 A3012 RMK A01 T02500112  RH  042%=      5-min Rain = 0
KEN1 030515Z 15004KT 25/11 A3012 RMK A01 T02490112  RH  042%=      5-min Rain = 0
KEN1 030516Z 15004KT 25/11 A3013 RMK A01 T02480112  RH  043%=      5-min Rain = 0
KEN1 030517Z 16003KT 25/11 A3013 RMK A01 T02470112  RH  043%=      5-min Rain = 0
KEN1 030518Z 14003KT 25/11 A3013 RMK A01 T02470112  RH  043%=      5-min Rain = 0
KEN1 030519Z 12005KT 25/11 A3013 RMK A01 T02470113  RH  043%=      5-min Rain = 0
KEN1 030520Z 12004KT 25/11 A3013 RMK A01 T02450112  RH  043%=      5-min Rain = 0
KEN1 030521Z 13003KT 25/11 A3013 RMK A01 T02450112  RH  043%=      5-min Rain = 0
KEN1 030522Z 15003KT 25/11 A3013 RMK A01 T02450112  RH  043%=      5-min Rain = 0
KEN1 030523Z 17003KT 25/11 A3013 RMK A01 T02450112  RH  043%=      5-min Rain = 0
KEN1 030524Z 18003KT 25/11 A3013 RMK A01 T02460112  RH  043%=      5-min Rain = 0
KEN1 030525Z 17003KT 25/11 A3013 RMK A01 T02460112  RH  043%=      5-min Rain = 0
KEN1 030526Z 17004KT 25/11 A3013 RMK A01 T02460113  RH  043%=      5-min Rain = 0
KEN1 030527Z 16003KT 25/11 A3013 RMK A01 T02460113  RH  043%=      5-min Rain = 0
KEN1 030528Z 16002KT 25/11 A3013 RMK A01 T02460112  RH  043%=      5-min Rain = 0
KEN1 030529Z 17002KT 25/11 A3013 RMK A01 T02460112  RH  043%=      5-min Rain = 0
KEN1 030530Z 17002KT 25/11 A3012 RMK A01 T02460112  RH  043%=      5-min Rain = 0
KEN1 030531Z 18001KT 25/11 A3012 RMK A01 T02460112  RH  043%=      5-min Rain = 0
KEN1 030532Z 19001KT 25/11 A3012 RMK A01 T02470112  RH  043%=      5-min Rain = 0
KEN1 030533Z 18001KT 25/11 A3012 RMK A01 T02470112  RH  043%=      5-min Rain = 0
KEN1 030534Z 20002KT 25/11 A3012 RMK A01 T02470113  RH  043%=      5-min Rain = 0
KEN1 030535Z 19003KT 25/11 A3013 RMK A01 T02470113  RH  043%=      5-min Rain = 0
KEN1 030536Z 18003KT 25/11 A3013 RMK A01 T02460113  RH  043%=      5-min Rain = 0
KEN1 030537Z 16003KT 25/11 A3013 RMK A01 T02450113  RH  043%=      5-min Rain = 0
KEN1 030538Z 16002KT 25/11 A3013 RMK A01 T02450113  RH  043%=      5-min Rain = 0
KEN1 030539Z 15002KT 25/11 A3013 RMK A01 T02450112  RH  043%=      5-min Rain = 0
KEN1 030540Z 14003KT 24/11 A3013 RMK A01 T02440113  RH  044%=      5-min Rain = 0
KEN1 030541Z 15003KT 24/11 A3013 RMK A01 T02430113  RH  044%=      5-min Rain = 0
KEN1 030542Z 14004KT 24/11 A3013 RMK A01 T02420113  RH  044%=      5-min Rain = 0
KEN1 030543Z 15004KT 24/11 A3012 RMK A01 T02400113  RH  045%=      5-min Rain = 0
KEN1 030544Z 16003KT 24/11 A3012 RMK A01 T02390113  RH  045%=      5-min Rain = 0
KEN1 030545Z 17003KT 24/11 A3012 RMK A01 T02380112  RH  045%=      5-min Rain = 0
KEN1 030546Z 18004KT 24/11 A3012 RMK A01 T02370112  RH  046%=      5-min Rain = 0
KEN1 030547Z 19004KT 24/11 A3012 RMK A01 T02350112  RH  046%=      5-min Rain = 0
KEN1 030548Z 20004KT 24/11 A3012 RMK A01 T02350112  RH  046%=      5-min Rain = 0
KEN1 030549Z 20003KT 24/11 A3012 RMK A01 T02350112  RH  046%=      5-min Rain = 0
KEN1 030550Z 20004KT 24/11 A3012 RMK A01 T02350112  RH  046%=      5-min Rain = 0
KEN1 030551Z 20003KT 24/11 A3012 RMK A01 T02350112  RH  046%=      5-min Rain = 0
KEN1 030552Z 19003KT 24/11 A3012 RMK A01 T02360112  RH  046%=      5-min Rain = 0
KEN1 030553Z 19003KT 24/11 A3012 RMK A01 T02360112  RH  045%=      5-min Rain = 0
KEN1 030554Z 19004KT 24/11 A3012 RMK A01 T02360112  RH  046%=      5-min Rain = 0
KEN1 030555Z 18004KT 24/11 A3012 RMK A01 T02360112  RH  046%=      5-min Rain = 0
KEN1 030556Z 18004KT 24/11 A3012 RMK A01 T02360112  RH  046%=      5-min Rain = 0
KEN1 030557Z 18004KT 24/11 A3013 RMK A01 T02360112  RH  046%=      5-min Rain = 0
KEN1 030558Z 18004KT 24/11 A3013 RMK A01 T02360112  RH  046%=      5-min Rain = 0
KEN1 030559Z 19005KT 24/11 A3013 RMK A01 T02350112  RH  046%=      5-min Rain = 0
KEN1 030600Z 19006KT 24/11 A3013 RMK A01 T02350112  RH  046%=      5-min Rain = 0
KEN1 030601Z 20005KT 24/11 A3013 RMK A01 T02350112  RH  046%=      5-min Rain = 0
KEN1 030602Z 20005KT 24/11 A3013 RMK A01 T02350112  RH  046%=      5-min Rain = 0
KEN1 030603Z 20005KT 24/11 A3013 RMK A01 T02350112  RH  046%=      5-min Rain = 0
KEN1 030604Z 20006KT 24/11 A3013 RMK A01 T02360112  RH  046%=      5-min Rain = 0
KEN1 030605Z 20006KT 24/11 A3012 RMK A01 T02350112  RH  046%=      5-min Rain = 0
KEN1 030606Z 21007KT 24/11 A3012 RMK A01 T02360113  RH  046%=      5-min Rain = 0
KEN1 030607Z 21007KT 24/11 A3012 RMK A01 T02360112  RH  046%=      5-min Rain = 0
KEN1 030608Z 21008KT 24/11 A3012 RMK A01 T02360113  RH  046%=      5-min Rain = 0
KEN1 030609Z 21008KT 24/11 A3012 RMK A01 T02350113  RH  046%=      5-min Rain = 0
KEN1 030610Z 21007KT 24/11 A3012 RMK A01 T02350113  RH  046%=      5-min Rain = 0
KEN1 030611Z 21007KT 24/11 A3012 RMK A01 T02350113  RH  046%=      5-min Rain = 0
KEN1 030612Z 21007KT 24/11 A3012 RMK A01 T02360113  RH  046%=      5-min Rain = 0
KEN1 030613Z 21007KT 24/11 A3012 RMK A01 T02360112  RH  046%=      5-min Rain = 0
KEN1 030614Z 21007KT 24/11 A3012 RMK A01 T02360113  RH  046%=      5-min Rain = 0
KEN1 030615Z 21007KT 24/11 A3012 RMK A01 T02360113  RH  046%=      5-min Rain = 0
KEN1 030616Z 21007KT 24/11 A3012 RMK A01 T02360113  RH  046%=      5-min Rain = 0
KEN1 030617Z 20007KT 24/11 A3012 RMK A01 T02360112  RH  046%=      5-min Rain = 0
KEN1 030618Z 20006KT 24/11 A3012 RMK A01 T02360112  RH  046%=      5-min Rain = 0
KEN1 030619Z 20006KT 24/11 A3012 RMK A01 T02370112  RH  046%=      5-min Rain = 0
KEN1 030620Z 20006KT 24/11 A3012 RMK A01 T02370112  RH  046%=      5-min Rain = 0
KEN1 030621Z 20006KT 24/11 A3012 RMK A01 T02370112  RH  045%=      5-min Rain = 0
KEN1 030622Z 20005KT 24/11 A3012 RMK A01 T02370112  RH  045%=      5-min Rain = 0
KEN1 030623Z 21005KT 24/11 A3012 RMK A01 T02370113  RH  046%=      5-min Rain = 0
KEN1 030624Z 21004KT 24/11 A3012 RMK A01 T02360113  RH  046%=      5-min Rain = 0
KEN1 030625Z 21004KT 24/11 A3012 RMK A01 T02350113  RH  046%=      5-min Rain = 0
KEN1 030626Z 21004KT 23/11 A3012 RMK A01 T02340113  RH  046%=      5-min Rain = 0
KEN1 030627Z 20004KT 23/11 A3012 RMK A01 T02340113  RH  047%=      5-min Rain = 0
KEN1 030628Z 20004KT 23/11 A3012 RMK A01 T02330113  RH  047%=      5-min Rain = 0
KEN1 030629Z 20004KT 23/11 A3012 RMK A01 T02330113  RH  047%=      5-min Rain = 0
KEN1 030630Z 19005KT 23/11 A3012 RMK A01 T02320113  RH  047%=      5-min Rain = 0
KEN1 030631Z 19005KT 23/11 A3012 RMK A01 T02320113  RH  047%=      5-min Rain = 0
KEN1 030632Z 19005KT 23/11 A3012 RMK A01 T02310112  RH  047%=      5-min Rain = 0
KEN1 030633Z 18005KT 23/11 A3012 RMK A01 T02300112  RH  047%=      5-min Rain = 0
KEN1 030634Z 18006KT 23/11 A3012 RMK A01 T02290112  RH  048%=      5-min Rain = 0
KEN1 030635Z 18006KT 23/11 A3012 RMK A01 T02290112  RH  048%=      5-min Rain = 0
KEN1 030636Z 19007KT 23/11 A3011 RMK A01 T02280112  RH  048%=      5-min Rain = 0
KEN1 030637Z 19006KT 23/11 A3011 RMK A01 T02280111  RH  048%=      5-min Rain = 0
KEN1 030638Z 19007KT 23/11 A3011 RMK A01 T02280111  RH  048%=      5-min Rain = 0
KEN1 030639Z 18006KT 23/11 A3011 RMK A01 T02290111  RH  047%=      5-min Rain = 0
KEN1 030640Z 18006KT 23/11 A3011 RMK A01 T02290111  RH  047%=      5-min Rain = 0
KEN1 030641Z 19007KT 23/11 A3011 RMK A01 T02290111  RH  047%=      5-min Rain = 0
KEN1 030642Z 19007KT 23/11 A3011 RMK A01 T02280111  RH  047%=      5-min Rain = 0
KEN1 030643Z 18006KT 23/11 A3011 RMK A01 T02280111  RH  047%=      5-min Rain = 0
KEN1 030644Z 18007KT 23/11 A3011 RMK A01 T02280111  RH  048%=      5-min Rain = 0
KEN1 030645Z 18006KT 23/11 A3011 RMK A01 T02270110  RH  047%=      5-min Rain = 0
KEN1 030646Z 17006KT 23/11 A3011 RMK A01 T02270110  RH  047%=      5-min Rain = 0
KEN1 030647Z 16007KT 23/11 A3011 RMK A01 T02270110  RH  047%=      5-min Rain = 0
KEN1 030648Z 17007KT 23/11 A3011 RMK A01 T02260110  RH  048%=      5-min Rain = 0
KEN1 030649Z 16007KT 22/11 A3011 RMK A01 T02240109  RH  048%=      5-min Rain = 0
KEN1 030650Z 16006KT 22/11 A3011 RMK A01 T02240109  RH  048%=      5-min Rain = 0
KEN1 030651Z 16006KT 22/11 A3011 RMK A01 T02230109  RH  048%=      5-min Rain = 0
KEN1 030652Z 16006KT 22/11 A3011 RMK A01 T02230109  RH  049%=      5-min Rain = 0
KEN1 030653Z 16005KT 22/11 A3011 RMK A01 T02220109  RH  049%=      5-min Rain = 0
KEN1 030654Z 16006KT 22/11 A3011 RMK A01 T02220109  RH  049%=      5-min Rain = 0
KEN1 030655Z 16007KT 22/11 A3011 RMK A01 T02210109  RH  049%=      5-min Rain = 0
KEN1 030656Z 16007KT 22/11 A3011 RMK A01 T02210110  RH  049%=      5-min Rain = 0
KEN1 030657Z 16007KT 22/11 A3011 RMK A01 T02210109  RH  049%=      5-min Rain = 0
KEN1 030658Z 16006KT 22/11 A3011 RMK A01 T02220109  RH  049%=      5-min Rain = 0
KEN1 030659Z 16006KT 22/11 A3011 RMK A01 T02220109  RH  049%=      5-min Rain = 0
KEN1 030700Z 16006KT 22/11 A3011 RMK A01 T02230109  RH  048%=      5-min Rain = 0
KEN1 030701Z 17005KT 22/11 A3011 RMK A01 T02230109  RH  048%=      5-min Rain = 0
KEN1 030702Z 17005KT 22/11 A3011 RMK A01 T02240109  RH  048%=      5-min Rain = 0
KEN1 030703Z 17005KT 22/11 A3011 RMK A01 T02230109  RH  048%=      5-min Rain = 0
KEN1 030704Z 17005KT 22/11 A301 RMK A01 T02230109  RH  048%=      5-min Rain = 0
KEN1 030705Z 17005KT 22/11 A301 RMK A01 T02240109  RH  048%=      5-min Rain = 0
KEN1 030706Z 17005KT 22/11 A301 RMK A01 T02230109  RH  048%=      5-min Rain = 0
KEN1 030707Z 18005KT 22/11 A301 RMK A01 T02240109  RH  048%=      5-min Rain = 0
KEN1 030708Z 18005KT 22/11 A301 RMK A01 T02240109  RH  048%=      5-min Rain = 0
KEN1 030709Z 18005KT 22/11 A301 RMK A01 T02240109  RH  048%=      5-min Rain = 0
KEN1 030710Z 18005KT 22/11 A301 RMK A01 T02240110  RH  048%=      5-min Rain = 0
KEN1 030711Z 18005KT 23/11 A301 RMK A01 T02250110  RH  048%=      5-min Rain = 0
KEN1 030712Z 18005KT 22/11 A301 RMK A01 T02240109  RH  048%=      5-min Rain = 0
KEN1 030713Z 18005KT 22/11 A301 RMK A01 T02240109  RH  048%=      5-min Rain = 0
KEN1 030714Z 17004KT 23/11 A301 RMK A01 T02250110  RH  048%=      5-min Rain = 0
KEN1 030715Z 17004KT 22/11 A301 RMK A01 T02240110  RH  048%=      5-min Rain = 0
KEN1 030716Z 16004KT 22/11 A301 RMK A01 T02240110  RH  048%=      5-min Rain = 0
KEN1 030717Z 15005KT 22/11 A301 RMK A01 T02230110  RH  049%=      5-min Rain = 0
KEN1 030718Z 15005KT 22/11 A301 RMK A01 T02220110  RH  049%=      5-min Rain = 0
KEN1 030719Z 14005KT 22/11 A301 RMK A01 T02210110  RH  049%=      5-min Rain = 0
KEN1 030720Z 15005KT 22/11 A301 RMK A01 T02190110  RH  050%=      5-min Rain = 0
KEN1 030721Z 16005KT 22/11 A301 RMK A01 T02170110  RH  050%=      5-min Rain = 0
KEN1 030722Z 17005KT 22/11 A301 RMK A01 T02160110  RH  051%=      5-min Rain = 0
KEN1 030723Z 18005KT 22/11 A301 RMK A01 T02160110  RH  051%=      5-min Rain = 0
KEN1 030724Z 17005KT 22/11 A301 RMK A01 T02170110  RH  051%=      5-min Rain = 0
KEN1 030725Z 17005KT 22/11 A301 RMK A01 T02170110  RH  050%=      5-min Rain = 0
KEN1 030726Z 17005KT 22/11 A301 RMK A01 T02180111  RH  050%=      5-min Rain = 0
KEN1 030727Z 17006KT 22/11 A301 RMK A01 T02180110  RH  050%=      5-min Rain = 0
KEN1 030728Z 16006KT 22/11 A301 RMK A01 T02180110  RH  050%=      5-min Rain = 0
KEN1 030729Z 16006KT 22/11 A301 RMK A01 T02180110  RH  050%=      5-min Rain = 0
KEN1 030730Z 17006KT 22/11 A301 RMK A01 T02180110  RH  050%=      5-min Rain = 0
KEN1 030731Z 16006KT 22/11 A301 RMK A01 T02190110  RH  050%=      5-min Rain = 0
KEN1 030732Z 16006KT 22/11 A301 RMK A01 T02190110  RH  050%=      5-min Rain = 0
KEN1 030733Z 16006KT 22/11 A301 RMK A01 T02190110  RH  050%=      5-min Rain = 0
KEN1 030734Z 16006KT 22/11 A301 RMK A01 T02190110  RH  050%=      5-min Rain = 0
KEN1 030735Z 16006KT 22/11 A301 RMK A01 T02190110  RH  050%=      5-min Rain = 0
KEN1 030736Z 16006KT 22/11 A301 RMK A01 T02190110  RH  050%=      5-min Rain = 0
KEN1 030737Z 15005KT 22/11 A3009 RMK A01 T02180110  RH  050%=      5-min Rain = 0
KEN1 030738Z 17005KT 22/11 A3009 RMK A01 T02180110  RH  050%=      5-min Rain = 0
KEN1 030739Z 15006KT 22/11 A3009 RMK A01 T02170109  RH  050%=      5-min Rain = 0
KEN1 030740Z 16006KT 22/11 A3009 RMK A01 T02170109  RH  050%=      5-min Rain = 0
KEN1 030741Z 15006KT 22/11 A3009 RMK A01 T02160109  RH  051%=      5-min Rain = 0
KEN1 030742Z 16005KT 22/11 A3009 RMK A01 T02160109  RH  051%=      5-min Rain = 0
KEN1 030743Z 16005KT 22/11 A3009 RMK A01 T02160109  RH  051%=      5-min Rain = 0
KEN1 030744Z 16006KT 22/11 A3009 RMK A01 T02150109  RH  051%=      5-min Rain = 0
KEN1 030745Z 16005KT 22/11 A3009 RMK A01 T02150109  RH  051%=      5-min Rain = 0
KEN1 030746Z 16006KT 22/11 A3009 RMK A01 T02150109  RH  051%=      5-min Rain = 0
KEN1 030747Z 17006KT 22/11 A3009 RMK A01 T02150109  RH  051%=      5-min Rain = 0
KEN1 030748Z 17005KT 22/11 A3009 RMK A01 T02150109  RH  051%=      5-min Rain = 0
KEN1 030749Z 17005KT 22/11 A3009 RMK A01 T02150109  RH  051%=      5-min Rain = 0
KEN1 030750Z 17005KT 22/11 A3009 RMK A01 T02150109  RH  051%=      5-min Rain = 0
KEN1 030751Z 16005KT 22/11 A3009 RMK A01 T02150109  RH  051%=      5-min Rain = 0
KEN1 030752Z 16005KT 22/11 A3009 RMK A01 T02150109  RH  051%=      5-min Rain = 0
KEN1 030753Z 15005KT 22/11 A3009 RMK A01 T02150109  RH  051%=      5-min Rain = 0
KEN1 030754Z 15005KT 21/11 A3009 RMK A01 T02140109  RH  051%=      5-min Rain = 0
KEN1 030755Z 15005KT 21/11 A3009 RMK A01 T02140109  RH  051%=      5-min Rain = 0
KEN1 030756Z 15006KT 21/11 A3009 RMK A01 T02130109  RH  051%=      5-min Rain = 0
KEN1 030757Z 15005KT 21/11 A3009 RMK A01 T02130109  RH  051%=      5-min Rain = 0
KEN1 030758Z 15005KT 21/11 A3009 RMK A01 T02130109  RH  052%=      5-min Rain = 0
KEN1 030759Z 15005KT 21/11 A3008 RMK A01 T02130109  RH  052%=      5-min Rain = 0
KEN1 030800Z 15006KT 21/11 A3008 RMK A01 T02130109  RH  051%=      5-min Rain = 0
KEN1 030801Z 14006KT 21/11 A3008 RMK A01 T02130109  RH  051%=      5-min Rain = 0
KEN1 030802Z 14006KT 21/11 A3008 RMK A01 T02130109  RH  051%=      5-min Rain = 0
KEN1 030803Z 14006KT 21/11 A3008 RMK A01 T02130109  RH  051%=      5-min Rain = 0
KEN1 030804Z 14006KT 21/11 A3008 RMK A01 T02130109  RH  051%=      5-min Rain = 0
KEN1 030805Z 14006KT 21/11 A3008 RMK A01 T02120109  RH  051%=      5-min Rain = 0
KEN1 030806Z 14006KT 21/11 A3008 RMK A01 T02130109  RH  052%=      5-min Rain = 0
KEN1 030807Z 14006KT 21/11 A3008 RMK A01 T02120109  RH  051%=      5-min Rain = 0
KEN1 030808Z 14006KT 21/11 A3008 RMK A01 T02120108  RH  052%=      5-min Rain = 0
KEN1 030809Z 14006KT 21/11 A3008 RMK A01 T02120108  RH  052%=      5-min Rain = 0
KEN1 030810Z 15006KT 21/11 A3008 RMK A01 T02120108  RH  052%=      5-min Rain = 0
KEN1 030811Z 15006KT 21/11 A3008 RMK A01 T02120108  RH  052%=      5-min Rain = 0
KEN1 030812Z 15006KT 21/11 A3008 RMK A01 T02120108  RH  052%=      5-min Rain = 0
KEN1 030813Z 15006KT 21/11 A3008 RMK A01 T02120109  RH  052%=      5-min Rain = 0
KEN1 030814Z 15006KT 21/11 A3008 RMK A01 T02110108  RH  052%=      5-min Rain = 0
KEN1 030815Z 15007KT 21/11 A3008 RMK A01 T02120108  RH  052%=      5-min Rain = 0
KEN1 030816Z 15007KT 21/11 A3008 RMK A01 T02130109  RH  051%=      5-min Rain = 0
KEN1 030817Z 15006KT 22/11 A3008 RMK A01 T02150109  RH  051%=      5-min Rain = 0
KEN1 030818Z 14006KT 22/11 A3008 RMK A01 T02160109  RH  050%=      5-min Rain = 0
KEN1 030819Z 14006KT 22/11 A3008 RMK A01 T02160108  RH  050%=      5-min Rain = 0
KEN1 030820Z 14007KT 22/11 A3008 RMK A01 T02160108  RH  050%=      5-min Rain = 0
KEN1 030821Z 14007KT 22/11 A3007 RMK A01 T02150108  RH  050%=      5-min Rain = 0
KEN1 030822Z 14007KT 22/11 A3007 RMK A01 T02150108  RH  051%=      5-min Rain = 0
KEN1 030823Z 14007KT 21/11 A3007 RMK A01 T02140108  RH  051%=      5-min Rain = 0
KEN1 030824Z 13006KT 21/11 A3007 RMK A01 T02140108  RH  051%=      5-min Rain = 0
KEN1 030825Z 13007KT 21/11 A3007 RMK A01 T02140108  RH  051%=      5-min Rain = 0
KEN1 030826Z 13006KT 21/11 A3007 RMK A01 T02130108  RH  051%=      5-min Rain = 0
KEN1 030827Z 14006KT 21/11 A3007 RMK A01 T02130108  RH  051%=      5-min Rain = 0
KEN1 030828Z 14006KT 21/11 A3007 RMK A01 T02130108  RH  051%=      5-min Rain = 0
KEN1 030829Z 14005KT 21/11 A3007 RMK A01 T02120107  RH  051%=      5-min Rain = 0
KEN1 030830Z 14005KT 21/11 A3007 RMK A01 T02120108  RH  051%=      5-min Rain = 0
KEN1 030831Z 14006KT 21/11 A3007 RMK A01 T02120108  RH  051%=      5-min Rain = 0
KEN1 030832Z 14005KT 21/11 A3007 RMK A01 T02120108  RH  052%=      5-min Rain = 0
KEN1 030833Z 13005KT 21/11 A3007 RMK A01 T02120109  RH  052%=      5-min Rain = 0
KEN1 030834Z 13005KT 21/11 A3007 RMK A01 T02110109  RH  052%=      5-min Rain = 0
KEN1 030835Z 13005KT 21/11 A3007 RMK A01 T02100108  RH  052%=      5-min Rain = 0
KEN1 030836Z 13005KT 21/11 A3007 RMK A01 T02090108  RH  052%=      5-min Rain = 0
KEN1 030837Z 13005KT 21/11 A3007 RMK A01 T02080108  RH  053%=      5-min Rain = 0
KEN1 030838Z 13005KT 21/11 A3007 RMK A01 T02080108  RH  053%=      5-min Rain = 0
KEN1 030839Z 13006KT 21/11 A3007 RMK A01 T02070108  RH  053%=      5-min Rain = 0
KEN1 030840Z 13006KT 21/11 A3007 RMK A01 T02070108  RH  053%=      5-min Rain = 0
KEN1 030841Z 13006KT 21/11 A3007 RMK A01 T02060109  RH  053%=      5-min Rain = 0
KEN1 030842Z 13006KT 21/11 A3007 RMK A01 T02060109  RH  054%=      5-min Rain = 0
KEN1 030843Z 13006KT 21/11 A3007 RMK A01 T02060110  RH  054%=      5-min Rain = 0
KEN1 030844Z 13006KT 21/11 A3007 RMK A01 T02060110  RH  054%=      5-min Rain = 0
KEN1 030845Z 12006KT 21/11 A3007 RMK A01 T02060111  RH  054%=      5-min Rain = 0
KEN1 030846Z 12006KT 21/11 A3007 RMK A01 T02060111  RH  054%=      5-min Rain = 0
KEN1 030847Z 13006KT 21/11 A3007 RMK A01 T02060112  RH  055%=      5-min Rain = 0
KEN1 030848Z 13006KT 21/11 A3007 RMK A01 T02060113  RH  055%=      5-min Rain = 0
KEN1 030849Z 13006KT 21/11 A3007 RMK A01 T02060113  RH  055%=      5-min Rain = 0
KEN1 030850Z 13006KT 21/11 A3007 RMK A01 T02050113  RH  055%=      5-min Rain = 0
KEN1 030851Z 13006KT 21/11 A3007 RMK A01 T02060114  RH  055%=      5-min Rain = 0
KEN1 030852Z 13006KT 21/11 A3007 RMK A01 T02060114  RH  056%=      5-min Rain = 0
KEN1 030853Z 14006KT 21/12 A3007 RMK A01 T02060115  RH  056%=      5-min Rain = 0
KEN1 030854Z 14005KT 21/11 A3007 RMK A01 T02060114  RH  056%=      5-min Rain = 0
KEN1 030855Z 14005KT 21/12 A3007 RMK A01 T02050115  RH  056%=      5-min Rain = 0
KEN1 030856Z 15005KT 21/12 A3007 RMK A01 T02060115  RH  056%=      5-min Rain = 0
KEN1 030857Z 15005KT 21/12 A3007 RMK A01 T02060115  RH  056%=      5-min Rain = 0
KEN1 030858Z 15004KT 21/12 A3007 RMK A01 T02060115  RH  056%=      5-min Rain = 0
KEN1 030859Z 15004KT 21/12 A3007 RMK A01 T02060115  RH  056%=      5-min Rain = 0
KEN1 030900Z 15004KT 21/12 A3007 RMK A01 T02050115  RH  056%=      5-min Rain = 0
KEN1 030901Z 15004KT 21/12 A3007 RMK A01 T02060116  RH  056%=      5-min Rain = 0
KEN1 030902Z 15004KT 21/12 A3007 RMK A01 T02050115  RH  056%=      5-min Rain = 0
KEN1 030903Z 15004KT 21/12 A3007 RMK A01 T02050115  RH  056%=      5-min Rain = 0
KEN1 030904Z 15004KT 20/12 A3007 RMK A01 T02040115  RH  057%=      5-min Rain = 0
KEN1 030905Z 16004KT 20/12 A3007 RMK A01 T02040116  RH  057%=      5-min Rain = 0
KEN1 030906Z 16004KT 20/12 A3007 RMK A01 T02040116  RH  057%=      5-min Rain = 0
KEN1 030907Z 17004KT 20/12 A3007 RMK A01 T02030116  RH  057%=      5-min Rain = 0
KEN1 030908Z 18004KT 20/12 A3007 RMK A01 T02030115  RH  057%=      5-min Rain = 0
KEN1 030909Z 19004KT 20/11 A3007 RMK A01 T02020114  RH  057%=      5-min Rain = 0
KEN1 030910Z 19004KT 20/12 A3007 RMK A01 T02010115  RH  057%=      5-min Rain = 0
KEN1 030911Z 20004KT 20/12 A3007 RMK A01 T02010115  RH  058%=      5-min Rain = 0
KEN1 030912Z 20004KT 20/12 A3007 RMK A01 T02010115  RH  058%=      5-min Rain = 0
KEN1 030913Z 21003KT 20/11 A3007 RMK A01 T02000114  RH  058%=      5-min Rain = 0
KEN1 030914Z 21003KT 20/12 A3007 RMK A01 T02000115  RH  058%=      5-min Rain = 0
KEN1 030915Z 22003KT 20/12 A3007 RMK A01 T02000115  RH  058%=      5-min Rain = 0
KEN1 030916Z 22004KT 20/12 A3007 RMK A01 T02000115  RH  058%=      5-min Rain = 0
KEN1 030917Z 23004KT 20/12 A3007 RMK A01 T02000115  RH  058%=      5-min Rain = 0
KEN1 030918Z 23004KT 20/12 A3007 RMK A01 T02010116  RH  058%=      5-min Rain = 0
KEN1 030919Z 23004KT 20/12 A3007 RMK A01 T02020116  RH  057%=      5-min Rain = 0
KEN1 030920Z 24004KT 20/12 A3007 RMK A01 T02040115  RH  057%=      5-min Rain = 0
KEN1 030921Z 24004KT 20/12 A3007 RMK A01 T02040115  RH  057%=      5-min Rain = 0
KEN1 030922Z 24004KT 20/12 A3007 RMK A01 T02040115  RH  057%=      5-min Rain = 0
KEN1 030923Z 25004KT 20/12 A3007 RMK A01 T02040115  RH  057%=      5-min Rain = 0
KEN1 030924Z 25004KT 20/11 A3008 RMK A01 T02030114  RH  057%=      5-min Rain = 0
KEN1 030925Z 25004KT 20/12 A3008 RMK A01 T02030115  RH  057%=      5-min Rain = 0
KEN1 030926Z 25004KT 20/11 A3008 RMK A01 T02030114  RH  056%=      5-min Rain = 0
KEN1 030927Z 25004KT 20/11 A3008 RMK A01 T02030114  RH  057%=      5-min Rain = 0
KEN1 030928Z 24004KT 20/11 A3008 RMK A01 T02020114  RH  057%=      5-min Rain = 0
KEN1 030929Z 23004KT 20/11 A3008 RMK A01 T02030114  RH  057%=      5-min Rain = 0
KEN1 030930Z 25004KT 20/11 A3008 RMK A01 T02040114  RH  056%=      5-min Rain = 0
KEN1 030931Z 25004KT 20/11 A3008 RMK A01 T02040114  RH  056%=      5-min Rain = 0
KEN1 030932Z 25004KT 20/12 A3008 RMK A01 T02040115  RH  057%=      5-min Rain = 0
KEN1 030933Z 25004KT 20/12 A3008 RMK A01 T02040115  RH  057%=      5-min Rain = 0
KEN1 030934Z 26004KT 20/12 A3008 RMK A01 T02040115  RH  056%=      5-min Rain = 0
KEN1 030935Z 25003KT 20/11 A3008 RMK A01 T02040114  RH  056%=      5-min Rain = 0
KEN1 030936Z 25003KT 20/11 A3008 RMK A01 T02030113  RH  056%=      5-min Rain = 0
KEN1 030937Z 26003KT 20/11 A3008 RMK A01 T02020113  RH  056%=      5-min Rain = 0
KEN1 030938Z 26003KT 20/11 A3008 RMK A01 T02020114  RH  057%=      5-min Rain = 0
KEN1 030939Z 26003KT 20/11 A3008 RMK A01 T02020114  RH  057%=      5-min Rain = 0
KEN1 030940Z 26003KT 20/11 A3008 RMK A01 T02020113  RH  057%=      5-min Rain = 0
KEN1 030941Z 25003KT 20/11 A3008 RMK A01 T02020113  RH  057%=      5-min Rain = 0
KEN1 030942Z 25004KT 20/11 A3008 RMK A01 T02010113  RH  057%=      5-min Rain = 0
KEN1 030943Z 26003KT 20/11 A3008 RMK A01 T02000113  RH  057%=      5-min Rain = 0
KEN1 030944Z 26003KT 20/11 A3008 RMK A01 T02000113  RH  057%=      5-min Rain = 0
KEN1 030945Z 25003KT 20/12 A3008 RMK A01 T02000115  RH  058%=      5-min Rain = 0
KEN1 030946Z 25002KT 20/12 A3008 RMK A01 T02020116  RH  058%=      5-min Rain = 0
KEN1 030947Z 26001KT 20/12 A3008 RMK A01 T02030115  RH  057%=      5-min Rain = 0
KEN1 030948Z 27002KT 20/12 A3008 RMK A01 T02040116  RH  057%=      5-min Rain = 0
KEN1 030949Z 29001KT 20/12 A3008 RMK A01 T02040116  RH  057%=      5-min Rain = 0
KEN1 030950Z 28001KT 21/12 A3008 RMK A01 T02050116  RH  057%=      5-min Rain = 0
KEN1 030951Z 29002KT 21/12 A3008 RMK A01 T02050116  RH  057%=      5-min Rain = 0
KEN1 030952Z 27002KT 21/12 A3008 RMK A01 T02060116  RH  056%=      5-min Rain = 0
KEN1 030953Z 26002KT 21/12 A3008 RMK A01 T02060116  RH  056%=      5-min Rain = 0
KEN1 030954Z 26001KT 21/12 A3008 RMK A01 T02070116  RH  056%=      5-min Rain = 0
KEN1 030955Z 27002KT 21/12 A3008 RMK A01 T02070116  RH  056%=      5-min Rain = 0
KEN1 030956Z 27002KT 21/12 A3008 RMK A01 T02060116  RH  056%=      5-min Rain = 0
KEN1 030957Z 27002KT 21/12 A3008 RMK A01 T02070116  RH  056%=      5-min Rain = 0
KEN1 030958Z 27002KT 21/12 A3008 RMK A01 T02060116  RH  056%=      5-min Rain = 0
KEN1 030959Z 27002KT 21/12 A3008 RMK A01 T02060116  RH  056%=      5-min Rain = 0
KEN1 031000Z 26002KT 21/12 A3008 RMK A01 T02050115  RH  056%=      5-min Rain = 0
KEN1 031001Z 26002KT 20/12 A3008 RMK A01 T02040115  RH  057%=      5-min Rain = 0
KEN1 031002Z 25002KT 20/12 A3008 RMK A01 T02030116  RH  057%=      5-min Rain = 0
KEN1 031003Z 24002KT 20/12 A3008 RMK A01 T02030116  RH  057%=      5-min Rain = 0
KEN1 031004Z 25002KT 20/12 A3008 RMK A01 T02030116  RH  057%=      5-min Rain = 0
KEN1 031005Z 25003KT 21/12 A3008 RMK A01 T02050116  RH  057%=      5-min Rain = 0
KEN1 031006Z 26002KT 21/12 A3008 RMK A01 T02050116  RH  057%=      5-min Rain = 0
KEN1 031007Z 26003KT 21/12 A3008 RMK A01 T02060116  RH  056%=      5-min Rain = 0
KEN1 031008Z 26003KT 21/12 A3008 RMK A01 T02070117  RH  056%=      5-min Rain = 0
KEN1 031009Z 26003KT 21/12 A3008 RMK A01 T02070116  RH  056%=      5-min Rain = 0
KEN1 031010Z 26003KT 21/12 A3008 RMK A01 T02070116  RH  056%=      5-min Rain = 0
KEN1 031011Z 26003KT 21/12 A3008 RMK A01 T02070116  RH  056%=      5-min Rain = 0
KEN1 031012Z 26004KT 21/12 A3008 RMK A01 T02060115  RH  056%=      5-min Rain = 0
KEN1 031013Z 27004KT 21/12 A3008 RMK A01 T02050115  RH  056%=      5-min Rain = 0
KEN1 031014Z 27003KT 20/12 A3008 RMK A01 T02040115  RH  057%=      5-min Rain = 0
KEN1 031015Z 27003KT 20/12 A3008 RMK A01 T02040115  RH  056%=      5-min Rain = 0
KEN1 031016Z 27004KT 20/12 A3008 RMK A01 T02040115  RH  056%=      5-min Rain = 0
KEN1 031017Z 27004KT 20/12 A3008 RMK A01 T02040115  RH  057%=      5-min Rain = 0
KEN1 031018Z 27003KT 20/11 A3008 RMK A01 T02030114  RH  057%=      5-min Rain = 0
KEN1 031019Z 27003KT 20/11 A3008 RMK A01 T02020114  RH  057%=      5-min Rain = 0
KEN1 031020Z 26003KT 20/12 A3008 RMK A01 T02020115  RH  057%=      5-min Rain = 0
KEN1 031021Z 25003KT 20/12 A3008 RMK A01 T02020115  RH  057%=      5-min Rain = 0
KEN1 031022Z 24003KT 20/12 A3008 RMK A01 T02030116  RH  057%=      5-min Rain = 0
KEN1 031023Z 23003KT 20/12 A3008 RMK A01 T02030116  RH  057%=      5-min Rain = 0
KEN1 031024Z 23003KT 20/12 A3008 RMK A01 T02040116  RH  057%=      5-min Rain = 0
KEN1 031025Z 23003KT 20/12 A3008 RMK A01 T02040116  RH  057%=      5-min Rain = 0
KEN1 031026Z 23004KT 20/12 A3008 RMK A01 T02040116  RH  057%=      5-min Rain = 0
KEN1 031027Z 23003KT 20/12 A3008 RMK A01 T02040117  RH  057%=      5-min Rain = 0
KEN1 031028Z 22003KT 20/12 A3008 RMK A01 T02040117  RH  057%=      5-min Rain = 0
KEN1 031029Z 22003KT 20/12 A3008 RMK A01 T02040117  RH  058%=      5-min Rain = 0
KEN1 031030Z 21003KT 20/12 A3008 RMK A01 T02030117  RH  058%=      5-min Rain = 0
KEN1 031031Z 21004KT 20/12 A3008 RMK A01 T02030117  RH  058%=      5-min Rain = 0
KEN1 031032Z 21004KT 20/12 A3008 RMK A01 T02020117  RH  058%=      5-min Rain = 0
KEN1 031033Z 20004KT 20/12 A3008 RMK A01 T02020118  RH  058%=      5-min Rain = 0
KEN1 031034Z 20005KT 20/12 A3008 RMK A01 T02020118  RH  058%=      5-min Rain = 0
KEN1 031035Z 20005KT 20/12 A3008 RMK A01 T02020117  RH  058%=      5-min Rain = 0
KEN1 031036Z 21005KT 20/12 A3008 RMK A01 T02000117  RH  059%=      5-min Rain = 0
KEN1 031037Z 21005KT 20/12 A3008 RMK A01 T01990117  RH  059%=      5-min Rain = 0
KEN1 031038Z 21005KT 20/12 A3008 RMK A01 T01980117  RH  060%=      5-min Rain = 0
KEN1 031039Z 21005KT 20/12 A3008 RMK A01 T01970118  RH  060%=      5-min Rain = 0
KEN1 031040Z 22005KT 20/12 A3008 RMK A01 T01960118  RH  061%=      5-min Rain = 0
KEN1 031041Z 22005KT 20/12 A3008 RMK A01 T01960119  RH  061%=      5-min Rain = 0
KEN1 031042Z 21005KT 20/12 A3008 RMK A01 T01950119  RH  061%=      5-min Rain = 0
KEN1 031043Z 21005KT 20/12 A3008 RMK A01 T01950119  RH  062%=      5-min Rain = 0
KEN1 031044Z 21004KT 20/12 A3008 RMK A01 T01950119  RH  062%=      5-min Rain = 0
KEN1 031045Z 21004KT 20/12 A3008 RMK A01 T01950119  RH  062%=      5-min Rain = 0
KEN1 031046Z 21004KT 20/12 A3008 RMK A01 T01950119  RH  061%=      5-min Rain = 0
KEN1 031047Z 21004KT 20/12 A3008 RMK A01 T01950119  RH  061%=      5-min Rain = 0
KEN1 031048Z 22004KT 20/12 A3008 RMK A01 T01950119  RH  061%=      5-min Rain = 0
KEN1 031049Z 21004KT 20/12 A3008 RMK A01 T01950119  RH  061%=      5-min Rain = 0
KEN1 031050Z 20005KT 20/12 A3008 RMK A01 T01950118  RH  061%=      5-min Rain = 0
KEN1 031051Z 20005KT 20/12 A3008 RMK A01 T01950118  RH  061%=      5-min Rain = 0
KEN1 031052Z 20004KT 20/12 A3008 RMK A01 T01950119  RH  062%=      5-min Rain = 0
KEN1 031053Z 19004KT 20/12 A3008 RMK A01 T01950119  RH  062%=      5-min Rain = 0
KEN1 031054Z 19004KT 20/12 A3008 RMK A01 T01950119  RH  062%=      5-min Rain = 0
KEN1 031055Z 18003KT 20/12 A3008 RMK A01 T01950119  RH  061%=      5-min Rain = 0
KEN1 031056Z 19003KT 20/12 A3008 RMK A01 T01950119  RH  061%=      5-min Rain = 0
KEN1 031057Z 18004KT 20/12 A3008 RMK A01 T01950118  RH  061%=      5-min Rain = 0
KEN1 031058Z 19004KT 19/12 A3008 RMK A01 T01940118  RH  062%=      5-min Rain = 0
KEN1 031059Z 18005KT 19/12 A3008 RMK A01 T01940119  RH  062%=      5-min Rain = 0
KEN1 031100Z 18005KT 19/12 A3008 RMK A01 T01930119  RH  062%=      5-min Rain = 0
KEN1 031101Z 18005KT 19/12 A3008 RMK A01 T01920118  RH  062%=      5-min Rain = 0
KEN1 031102Z 18005KT 19/12 A3008 RMK A01 T01930119  RH  062%=      5-min Rain = 0
KEN1 031103Z 18005KT 19/12 A3008 RMK A01 T01920118  RH  062%=      5-min Rain = 0
KEN1 031104Z 18005KT 19/12 A3008 RMK A01 T01920119  RH  062%=      5-min Rain = 0
KEN1 031105Z 18005KT 19/12 A3008 RMK A01 T01920118  RH  062%=      5-min Rain = 0
KEN1 031106Z 18005KT 19/12 A3008 RMK A01 T01910118  RH  063%=      5-min Rain = 0
KEN1 031107Z 17004KT 19/12 A3008 RMK A01 T01910118  RH  063%=      5-min Rain = 0
KEN1 031108Z 17004KT 19/12 A3008 RMK A01 T01910118  RH  063%=      5-min Rain = 0
KEN1 031109Z 16004KT 19/12 A3008 RMK A01 T01900117  RH  063%=      5-min Rain = 0
KEN1 031110Z 16004KT 19/12 A3008 RMK A01 T01890117  RH  063%=      5-min Rain = 0
KEN1 031111Z 16005KT 19/12 A3008 RMK A01 T01880117  RH  063%=      5-min Rain = 0
KEN1 031112Z 16005KT 19/12 A3008 RMK A01 T01880117  RH  063%=      5-min Rain = 0
KEN1 031113Z 16005KT 19/12 A3008 RMK A01 T01880117  RH  063%=      5-min Rain = 0
KEN1 031114Z 16005KT 19/12 A3008 RMK A01 T01870116  RH  063%=      5-min Rain = 0
KEN1 031115Z 16005KT 19/12 A3008 RMK A01 T01860116  RH  064%=      5-min Rain = 0
KEN1 031116Z 16005KT 19/12 A3008 RMK A01 T01860116  RH  064%=      5-min Rain = 0
KEN1 031117Z 16004KT 19/12 A3008 RMK A01 T01850116  RH  064%=      5-min Rain = 0
KEN1 031118Z 16004KT 19/12 A3007 RMK A01 T01850116  RH  064%=      5-min Rain = 0
KEN1 031119Z 17004KT 19/12 A3007 RMK A01 T01850116  RH  064%=      5-min Rain = 0
KEN1 031120Z 17004KT 19/12 A3007 RMK A01 T01850116  RH  064%=      5-min Rain = 0
KEN1 031121Z 17004KT 19/12 A3007 RMK A01 T01850117  RH  064%=      5-min Rain = 0
KEN1 031122Z 16004KT 18/12 A3007 RMK A01 T01840116  RH  064%=      5-min Rain = 0
KEN1 031123Z 16004KT 18/12 A3007 RMK A01 T01840116  RH  064%=      5-min Rain = 0
KEN1 031124Z 16004KT 18/12 A3007 RMK A01 T01830116  RH  065%=      5-min Rain = 0
KEN1 031125Z 17004KT 18/12 A3008 RMK A01 T01830115  RH  065%=      5-min Rain = 0
KEN1 031126Z 18003KT 18/12 A3008 RMK A01 T01820115  RH  065%=      5-min Rain = 0
KEN1 031127Z 18002KT 18/12 A3008 RMK A01 T01810115  RH  065%=      5-min Rain = 0
KEN1 031128Z 19002KT 18/12 A3008 RMK A01 T01810116  RH  066%=      5-min Rain = 0
KEN1 031129Z 19002KT 18/12 A3008 RMK A01 T01810116  RH  066%=      5-min Rain = 0
KEN1 031130Z 18003KT 18/12 A3008 RMK A01 T01810117  RH  066%=      5-min Rain = 0
KEN1 031131Z 17003KT 18/12 A3008 RMK A01 T01810116  RH  066%=      5-min Rain = 0
KEN1 031132Z 17003KT 18/12 A3008 RMK A01 T01810116  RH  066%=      5-min Rain = 0
KEN1 031133Z 17004KT 18/12 A3008 RMK A01 T01810116  RH  066%=      5-min Rain = 0
KEN1 031134Z 17004KT 18/12 A3008 RMK A01 T01810116  RH  066%=      5-min Rain = 0
KEN1 031135Z 17003KT 18/12 A3008 RMK A01 T01810116  RH  066%=      5-min Rain = 0
KEN1 031136Z 17003KT 18/12 A3008 RMK A01 T01810116  RH  066%=      5-min Rain = 0
KEN1 031137Z 17003KT 18/12 A3008 RMK A01 T01810116  RH  066%=      5-min Rain = 0
KEN1 031138Z 17003KT 18/12 A3008 RMK A01 T01810116  RH  066%=      5-min Rain = 0
KEN1 031139Z 17004KT 18/12 A3008 RMK A01 T01810116  RH  066%=      5-min Rain = 0
KEN1 031140Z 17004KT 18/12 A3008 RMK A01 T01800115  RH  066%=      5-min Rain = 0
KEN1 031141Z 17004KT 18/12 A3008 RMK A01 T01800116  RH  066%=      5-min Rain = 0
KEN1 031142Z 17004KT 18/12 A3008 RMK A01 T01790115  RH  066%=      5-min Rain = 0
KEN1 031143Z 17005KT 18/11 A3008 RMK A01 T01780114  RH  066%=      5-min Rain = 0
KEN1 031144Z 17005KT 18/11 A3008 RMK A01 T01770113  RH  066%=      5-min Rain = 0
KEN1 031145Z 17005KT 18/11 A3008 RMK A01 T01760113  RH  066%=      5-min Rain = 0
KEN1 031146Z 17004KT 18/11 A3008 RMK A01 T01750113  RH  067%=      5-min Rain = 0
KEN1 031147Z 19004KT 18/11 A3008 RMK A01 T01750114  RH  067%=      5-min Rain = 0
KEN1 031148Z 19004KT 18/11 A3008 RMK A01 T01750114  RH  067%=      5-min Rain = 0
KEN1 031149Z 20004KT 18/11 A3008 RMK A01 T01750114  RH  067%=      5-min Rain = 0
KEN1 031150Z 20004KT 18/11 A3008 RMK A01 T01750114  RH  067%=      5-min Rain = 0
KEN1 031151Z 20004KT 18/11 A3008 RMK A01 T01750114  RH  067%=      5-min Rain = 0
KEN1 031152Z 20004KT 18/11 A3008 RMK A01 T01750114  RH  067%=      5-min Rain = 0
KEN1 031153Z 19004KT 18/11 A3008 RMK A01 T01750113  RH  067%=      5-min Rain = 0
KEN1 031154Z 19004KT 18/11 A3008 RMK A01 T01760114  RH  067%=      5-min Rain = 0
KEN1 031155Z 19005KT 18/11 A3008 RMK A01 T01760114  RH  067%=      5-min Rain = 0
KEN1 031156Z 20004KT 18/11 A3008 RMK A01 T01760113  RH  067%=      5-min Rain = 0
KEN1 031157Z 21004KT 18/11 A3008 RMK A01 T01760114  RH  067%=      5-min Rain = 0
KEN1 031158Z 24004KT 18/11 A3009 RMK A01 T01750113  RH  067%=      5-min Rain = 0
KEN1 031159Z 27003KT 17/11 A3009 RMK A01 T01740113  RH  067%=      5-min Rain = 0
KEN1 031200Z 29004KT 17/11 A3009 RMK A01 T01730114  RH  068%=      5-min Rain = 0
KEN1 031201Z 26004KT 17/12 A3009 RMK A01 T01730115  RH  069%=      5-min Rain = 0
KEN1 031202Z 24003KT 18/12 A3009 RMK A01 T01750117  RH  069%=      5-min Rain = 0
KEN1 031203Z 25003KT 18/12 A3009 RMK A01 T01770117  RH  068%=      5-min Rain = 0
KEN1 031204Z 27003KT 18/12 A3009 RMK A01 T01770116  RH  068%=      5-min Rain = 0
KEN1 031205Z 28003KT 18/12 A3009 RMK A01 T01770117  RH  067%=      5-min Rain = 0
KEN1 031206Z 27002KT 18/12 A3009 RMK A01 T01760116  RH  068%=      5-min Rain = 0
KEN1 031207Z 27001KT 18/12 A3008 RMK A01 T01750116  RH  068%=      5-min Rain = 0
KEN1 031208Z 27001KT 18/12 A3008 RMK A01 T01750116  RH  068%=      5-min Rain = 0
KEN1 031209Z 27000KT 18/12 A3008 RMK A01 T01750116  RH  068%=      5-min Rain = 0
KEN1 031210Z 19001KT 18/12 A3008 RMK A01 T01760116  RH  068%=      5-min Rain = 0
KEN1 031211Z 18002KT 18/12 A3008 RMK A01 T01770117  RH  068%=      5-min Rain = 0
KEN1 031212Z 18003KT 18/12 A3008 RMK A01 T01770117  RH  067%=      5-min Rain = 0
KEN1 031213Z 18004KT 18/12 A3008 RMK A01 T01770116  RH  067%=      5-min Rain = 0
KEN1 031214Z 19005KT 18/12 A3009 RMK A01 T01770117  RH  068%=      5-min Rain = 0
KEN1 031215Z 19005KT 18/12 A3009 RMK A01 T01760117  RH  068%=      5-min Rain = 0
KEN1 031216Z 19006KT 18/12 A3009 RMK A01 T01760117  RH  068%=      5-min Rain = 0
KEN1 031217Z 20005KT 18/12 A3009 RMK A01 T01760117  RH  068%=      5-min Rain = 0
KEN1 031218Z 20005KT 18/12 A3009 RMK A01 T01770117  RH  068%=      5-min Rain = 0
KEN1 031219Z 19004KT 18/12 A3009 RMK A01 T01780118  RH  068%=      5-min Rain = 0
KEN1 031220Z 19004KT 18/12 A3009 RMK A01 T01790118  RH  068%=      5-min Rain = 0
KEN1 031221Z 19003KT 18/12 A3009 RMK A01 T01800119  RH  067%=      5-min Rain = 0
KEN1 031222Z 19002KT 18/12 A3009 RMK A01 T01810119  RH  067%=      5-min Rain = 0
KEN1 031223Z 19003KT 18/12 A3009 RMK A01 T01810119  RH  067%=      5-min Rain = 0
KEN1 031224Z 19004KT 18/12 A3009 RMK A01 T01820119  RH  067%=      5-min Rain = 0
KEN1 031225Z 20005KT 18/12 A3009 RMK A01 T01810119  RH  067%=      5-min Rain = 0
KEN1 031226Z 20005KT 18/12 A3009 RMK A01 T01810119  RH  067%=      5-min Rain = 0
KEN1 031227Z 20005KT 18/12 A3009 RMK A01 T01800119  RH  067%=      5-min Rain = 0
KEN1 031228Z 20005KT 18/12 A3009 RMK A01 T01790119  RH  068%=      5-min Rain = 0
KEN1 031229Z 20005KT 18/12 A3009 RMK A01 T01780119  RH  068%=      5-min Rain = 0
KEN1 031230Z 20005KT 18/12 A3009 RMK A01 T01780119  RH  068%=      5-min Rain = 0
KEN1 031231Z 20005KT 18/12 A3009 RMK A01 T01780119  RH  068%=      5-min Rain = 0
KEN1 031232Z 20004KT 18/12 A3009 RMK A01 T01770118  RH  068%=      5-min Rain = 0
KEN1 031233Z 19004KT 18/12 A3009 RMK A01 T01770118  RH  068%=      5-min Rain = 0
KEN1 031234Z 20004KT 18/12 A3009 RMK A01 T01770118  RH  068%=      5-min Rain = 0
KEN1 031235Z 20004KT 18/12 A3009 RMK A01 T01760118  RH  068%=      5-min Rain = 0
KEN1 031236Z 21005KT 18/12 A3009 RMK A01 T01760118  RH  069%=      5-min Rain = 0
KEN1 031237Z 21004KT 18/12 A3009 RMK A01 T01760118  RH  069%=      5-min Rain = 0
KEN1 031238Z 22004KT 18/12 A3009 RMK A01 T01760118  RH  069%=      5-min Rain = 0
KEN1 031239Z 22003KT 18/12 A3009 RMK A01 T01760118  RH  069%=      5-min Rain = 0
KEN1 031240Z 23003KT 18/12 A3009 RMK A01 T01770119  RH  069%=      5-min Rain = 0
KEN1 031241Z 23003KT 18/12 A3009 RMK A01 T01770119  RH  069%=      5-min Rain = 0
KEN1 031242Z 23004KT 18/12 A3009 RMK A01 T01770119  RH  069%=      5-min Rain = 0
KEN1 031243Z 22004KT 18/12 A3009 RMK A01 T01770119  RH  069%=      5-min Rain = 0
KEN1 031244Z 22004KT 18/12 A3009 RMK A01 T01780120  RH  069%=      5-min Rain = 0
KEN1 031245Z 22004KT 18/12 A3009 RMK A01 T01780120  RH  069%=      5-min Rain = 0
KEN1 031246Z 21005KT 18/12 A301 RMK A01 T01770120  RH  069%=      5-min Rain = 0
KEN1 031247Z 21004KT 18/12 A301 RMK A01 T01760120  RH  069%=      5-min Rain = 0
KEN1 031248Z 20004KT 18/12 A301 RMK A01 T01770120  RH  070%=      5-min Rain = 0
KEN1 031249Z 20004KT 18/12 A301 RMK A01 T01760120  RH  069%=      5-min Rain = 0
KEN1 031250Z 21004KT 18/12 A301 RMK A01 T01760120  RH  069%=      5-min Rain = 0
KEN1 031251Z 21004KT 18/12 A301 RMK A01 T01770120  RH  069%=      5-min Rain = 0
KEN1 031252Z 21004KT 18/12 A301 RMK A01 T01780120  RH  069%=      5-min Rain = 0
KEN1 031253Z 21004KT 18/12 A301 RMK A01 T01790121  RH  068%=      5-min Rain = 0
KEN1 031254Z 20004KT 18/12 A301 RMK A01 T01810121  RH  068%=      5-min Rain = 0
KEN1 031255Z 20004KT 18/12 A301 RMK A01 T01830121  RH  067%=      5-min Rain = 0
KEN1 031256Z 20004KT 19/12 A301 RMK A01 T01850121  RH  067%=      5-min Rain = 0
KEN1 031257Z 20003KT 19/12 A301 RMK A01 T01860121  RH  066%=      5-min Rain = 0
KEN1 031258Z 20003KT 19/12 A3009 RMK A01 T01870121  RH  065%=      5-min Rain = 0
KEN1 031259Z 20003KT 19/12 A3009 RMK A01 T01880121  RH  065%=      5-min Rain = 0
KEN1 031300Z 21002KT 19/12 A3009 RMK A01 T01890122  RH  065%=      5-min Rain = 0
KEN1 031301Z 21003KT 19/12 A3009 RMK A01 T01900122  RH  065%=      5-min Rain = 0
KEN1 031302Z 22003KT 19/12 A3009 RMK A01 T01900122  RH  065%=      5-min Rain = 0
KEN1 031303Z 22003KT 19/12 A3009 RMK A01 T01910123  RH  065%=      5-min Rain = 0
KEN1 031304Z 21003KT 19/12 A3009 RMK A01 T01930124  RH  064%=      5-min Rain = 0
KEN1 031305Z 22003KT 19/12 A3009 RMK A01 T01940124  RH  064%=      5-min Rain = 0
KEN1 031306Z 20003KT 20/12 A3009 RMK A01 T01950124  RH  063%=      5-min Rain = 0
KEN1 031307Z 20003KT 20/12 A3009 RMK A01 T01960124  RH  063%=      5-min Rain = 0
KEN1 031308Z 20003KT 20/12 A3009 RMK A01 T01970123  RH  062%=      5-min Rain = 0
KEN1 031309Z 19002KT 20/12 A3009 RMK A01 T01980124  RH  062%=      5-min Rain = 0
KEN1 031310Z 20002KT 20/13 A3009 RMK A01 T01990125  RH  062%=      5-min Rain = 0
KEN1 031311Z 22002KT 20/12 A3009 RMK A01 T02000124  RH  062%=      5-min Rain = 0
KEN1 031312Z 22002KT 20/12 A3009 RMK A01 T02010124  RH  061%=      5-min Rain = 0
KEN1 031313Z 23004KT 20/12 A3009 RMK A01 T02020124  RH  061%=      5-min Rain = 0
KEN1 031314Z 22003KT 20/12 A3009 RMK A01 T02020124  RH  061%=      5-min Rain = 0
KEN1 031315Z 22003KT 20/12 A3009 RMK A01 T02020124  RH  061%=      5-min Rain = 0
KEN1 031316Z 21003KT 20/13 A3009 RMK A01 T02030125  RH  061%=      5-min Rain = 0
KEN1 031317Z 22003KT 20/13 A3009 RMK A01 T02040125  RH  061%=      5-min Rain = 0
KEN1 031318Z 21004KT 21/13 A3009 RMK A01 T02050125  RH  060%=      5-min Rain = 0
KEN1 031319Z 21004KT 21/13 A3009 RMK A01 T02060125  RH  060%=      5-min Rain = 0
KEN1 031320Z 19004KT 21/13 A3009 RMK A01 T02060125  RH  060%=      5-min Rain = 0
KEN1 031321Z 20004KT 21/13 A3009 RMK A01 T02070125  RH  059%=      5-min Rain = 0
KEN1 031322Z 20003KT 21/13 A3009 RMK A01 T02070125  RH  059%=      5-min Rain = 0
KEN1 031323Z 19003KT 21/13 A301 RMK A01 T02080126  RH  059%=      5-min Rain = 0
KEN1 031324Z 18004KT 21/13 A301 RMK A01 T02090127  RH  059%=      5-min Rain = 0
KEN1 031325Z 19004KT 21/13 A301 RMK A01 T02100126  RH  059%=      5-min Rain = 0
KEN1 031326Z 19004KT 21/13 A301 RMK A01 T02100125  RH  058%=      5-min Rain = 0
KEN1 031327Z 19003KT 21/13 A301 RMK A01 T02100126  RH  059%=      5-min Rain = 0
KEN1 031328Z 19004KT 21/13 A301 RMK A01 T02110126  RH  058%=      5-min Rain = 0
KEN1 031329Z 18003KT 21/13 A301 RMK A01 T02110126  RH  058%=      5-min Rain = 0
KEN1 031330Z 19004KT 21/13 A301 RMK A01 T02120127  RH  058%=      5-min Rain = 0
KEN1 031331Z 19004KT 21/13 A301 RMK A01 T02120127  RH  058%=      5-min Rain = 0
KEN1 031332Z 18003KT 21/13 A301 RMK A01 T02130127  RH  058%=      5-min Rain = 0
KEN1 031333Z 18003KT 21/13 A301 RMK A01 T02140127  RH  058%=      5-min Rain = 0
KEN1 031334Z 16002KT 22/13 A301 RMK A01 T02150128  RH  058%=      5-min Rain = 0
KEN1 031335Z 18002KT 22/13 A301 RMK A01 T02160128  RH  057%=      5-min Rain = 0
KEN1 031336Z 19004KT 22/13 A301 RMK A01 T02180127  RH  056%=      5-min Rain = 0
KEN1 031337Z 21003KT 22/13 A301 RMK A01 T02190127  RH  056%=      5-min Rain = 0
KEN1 031338Z 20002KT 22/13 A301 RMK A01 T02200127  RH  056%=      5-min Rain = 0
KEN1 031339Z 23002KT 22/13 A301 RMK A01 T02200127  RH  055%=      5-min Rain = 0
KEN1 031340Z 23002KT 22/13 A301 RMK A01 T02210128  RH  055%=      5-min Rain = 0
KEN1 031341Z 23001KT 22/13 A301 RMK A01 T02220128  RH  055%=      5-min Rain = 0
KEN1 031342Z 23002KT 22/13 A301 RMK A01 T02230128  RH  055%=      5-min Rain = 0
KEN1 031343Z 23001KT 22/13 A301 RMK A01 T02240127  RH  054%=      5-min Rain = 0
KEN1 031344Z 22001KT 23/13 A301 RMK A01 T02250128  RH  054%=      5-min Rain = 0
KEN1 031345Z 21001KT 23/13 A301 RMK A01 T02270128  RH  054%=      5-min Rain = 0
KEN1 031346Z 23001KT 23/13 A301 RMK A01 T02280128  RH  053%=      5-min Rain = 0
KEN1 031347Z 25001KT 23/13 A301 RMK A01 T02280128  RH  053%=      5-min Rain = 0
KEN1 031348Z 24001KT 23/13 A301 RMK A01 T02290128  RH  053%=      5-min Rain = 0
KEN1 031349Z 25001KT 23/13 A301 RMK A01 T02290128  RH  053%=      5-min Rain = 0
KEN1 031350Z 22001KT 23/13 A301 RMK A01 T02300128  RH  053%=      5-min Rain = 0
KEN1 031351Z 21001KT 23/13 A301 RMK A01 T02310129  RH  052%=      5-min Rain = 0
KEN1 031352Z 22001KT 23/13 A301 RMK A01 T02330128  RH  052%=      5-min Rain = 0
KEN1 031353Z 22001KT 23/13 A301 RMK A01 T02340127  RH  051%=      5-min Rain = 0
KEN1 031354Z 21001KT 23/13 A301 RMK A01 T02340128  RH  051%=      5-min Rain = 0
KEN1 031355Z 25001KT 24/13 A301 RMK A01 T02350127  RH  051%=      5-min Rain = 0
KEN1 031356Z 25001KT 24/13 A301 RMK A01 T02360128  RH  051%=      5-min Rain = 0
KEN1 031357Z 23000KT 24/13 A301 RMK A01 T02370127  RH  050%=      5-min Rain = 0
KEN1 031358Z 00000KT 24/13 A301 RMK A01 T02380127  RH  050%=      5-min Rain = 0
KEN1 031359Z 29000KT 24/13 A301 RMK A01 T02390126  RH  049%=      5-min Rain = 0
KEN1 031400Z 35001KT 24/13 A301 RMK A01 T02420125  RH  048%=      5-min Rain = 0
KEN1 031401Z 03000KT 24/12 A301 RMK A01 T02430123  RH  047%=      5-min Rain = 0
KEN1 031402Z 03000KT 25/13 A301 RMK A01 T02450125  RH  047%=      5-min Rain = 0
KEN1 031403Z 33001KT 25/12 A301 RMK A01 T02470122  RH  046%=      5-min Rain = 0
KEN1 031404Z 35002KT 25/12 A301 RMK A01 T02480122  RH  045%=      5-min Rain = 0
KEN1 031405Z 33001KT 25/12 A301 RMK A01 T02480122  RH  045%=      5-min Rain = 0
KEN1 031406Z 28002KT 25/12 A301 RMK A01 T02480120  RH  045%=      5-min Rain = 0
KEN1 031407Z 28001KT 25/12 A301 RMK A01 T02480118  RH  044%=      5-min Rain = 0
KEN1 031408Z 30002KT 25/12 A301 RMK A01 T02470119  RH  045%=      5-min Rain = 0
KEN1 031409Z 30003KT 25/12 A301 RMK A01 T02470118  RH  045%=      5-min Rain = 0
KEN1 031410Z 32003KT 25/12 A301 RMK A01 T02470119  RH  045%=      5-min Rain = 0
KEN1 031411Z 33002KT 25/12 A301 RMK A01 T02470119  RH  045%=      5-min Rain = 0
KEN1 031412Z 33002KT 25/12 A301 RMK A01 T02470120  RH  045%=      5-min Rain = 0
KEN1 031413Z 33004KT 25/12 A301 RMK A01 T02470118  RH  044%=      5-min Rain = 0
KEN1 031414Z 33004KT 25/12 A301 RMK A01 T02470120  RH  045%=      5-min Rain = 0
KEN1 031415Z 32003KT 25/12 A301 RMK A01 T02470121  RH  046%=      5-min Rain = 0
KEN1 031416Z 34002KT 25/12 A301 RMK A01 T02470122  RH  046%=      5-min Rain = 0
KEN1 031417Z 32002KT 25/12 A301 RMK A01 T02490124  RH  046%=      5-min Rain = 0
KEN1 031418Z 32003KT 25/12 A301 RMK A01 T02500123  RH  045%=      5-min Rain = 0
KEN1 031419Z 31003KT 25/12 A301 RMK A01 T02500122  RH  045%=      5-min Rain = 0
KEN1 031420Z 32003KT 25/12 A301 RMK A01 T02490122  RH  045%=      5-min Rain = 0
KEN1 031421Z 33004KT 25/12 A301 RMK A01 T02490123  RH  045%=      5-min Rain = 0
KEN1 031422Z 33005KT 25/12 A301 RMK A01 T02500124  RH  045%=      5-min Rain = 0
KEN1 031423Z 33004KT 25/12 A301 RMK A01 T02510124  RH  045%=      5-min Rain = 0
KEN1 031424Z 34004KT 25/12 A301 RMK A01 T02510124  RH  045%=      5-min Rain = 0
KEN1 031425Z 34003KT 25/12 A301 RMK A01 T02500124  RH  045%=      5-min Rain = 0
KEN1 031426Z 33002KT 25/13 A301 RMK A01 T02490125  RH  046%=      5-min Rain = 0
KEN1 031427Z 33001KT 25/12 A301 RMK A01 T02500124  RH  045%=      5-min Rain = 0
KEN1 031428Z 00003KT 25/12 A301 RMK A01 T02510123  RH  045%=      5-min Rain = 0
KEN1 031429Z 35003KT 25/12 A301 RMK A01 T02530121  RH  044%=      5-min Rain = 0
KEN1 031430Z 34003KT 25/12 A301 RMK A01 T02530123  RH  044%=      5-min Rain = 0
KEN1 031431Z 35002KT 25/12 A301 RMK A01 T02530123  RH  044%=      5-min Rain = 0
KEN1 031432Z 31001KT 25/12 A301 RMK A01 T02530124  RH  045%=      5-min Rain = 0
KEN1 031433Z 26001KT 25/12 A301 RMK A01 T02540123  RH  044%=      5-min Rain = 0
KEN1 031434Z 27002KT 26/12 A301 RMK A01 T02550123  RH  044%=      5-min Rain = 0
KEN1 031435Z 28001KT 26/12 A301 RMK A01 T02550124  RH  044%=      5-min Rain = 0
KEN1 031436Z 00002KT 26/13 A301 RMK A01 T02570126  RH  044%=      5-min Rain = 0
KEN1 031437Z 34005KT 26/13 A301 RMK A01 T02600126  RH  043%=      5-min Rain = 0
KEN1 031438Z 31004KT 26/13 A301 RMK A01 T02620125  RH  043%=      5-min Rain = 0
KEN1 031439Z 30004KT 26/12 A3011 RMK A01 T02620123  RH  042%=      5-min Rain = 0
KEN1 031440Z 31003KT 26/12 A3011 RMK A01 T02610123  RH  042%=      5-min Rain = 0
KEN1 031441Z 31003KT 26/12 A3011 RMK A01 T02610123  RH  042%=      5-min Rain = 0
KEN1 031442Z 31003KT 26/12 A301 RMK A01 T02600122  RH  042%=      5-min Rain = 0
KEN1 031443Z 30003KT 26/12 A301 RMK A01 T02590123  RH  043%=      5-min Rain = 0
KEN1 031444Z 30004KT 26/13 A301 RMK A01 T02610125  RH  043%=      5-min Rain = 0
KEN1 031445Z 33002KT 26/12 A301 RMK A01 T02630122  RH  042%=      5-min Rain = 0
KEN1 031446Z 33002KT 26/12 A301 RMK A01 T02640123  RH  041%=      5-min Rain = 0
KEN1 031447Z 32003KT 26/12 A301 RMK A01 T02640123  RH  042%=      5-min Rain = 0
KEN1 031448Z 32003KT 27/12 A3011 RMK A01 T02650124  RH  042%=      5-min Rain = 0
KEN1 031449Z 29005KT 27/13 A3011 RMK A01 T02670127  RH  042%=      5-min Rain = 0
KEN1 031450Z 26003KT 27/12 A3011 RMK A01 T02680124  RH  041%=      5-min Rain = 0
KEN1 031451Z 26001KT 27/12 A3011 RMK A01 T02680124  RH  041%=      5-min Rain = 0
KEN1 031452Z 28003KT 27/12 A3011 RMK A01 T02670124  RH  041%=      5-min Rain = 0
KEN1 031453Z 31003KT 27/13 A3011 RMK A01 T02670125  RH  041%=      5-min Rain = 0
KEN1 031454Z 31004KT 27/12 A3011 RMK A01 T02660124  RH  041%=      5-min Rain = 0
KEN1 031455Z 32002KT 27/12 A3011 RMK A01 T02660123  RH  041%=      5-min Rain = 0
KEN1 031456Z 34001KT 27/12 A3011 RMK A01 T02660122  RH  041%=      5-min Rain = 0
KEN1 031457Z 35001KT 27/12 A3011 RMK A01 T02660122  RH  041%=      5-min Rain = 0
KEN1 031458Z 00000KT 27/12 A3011 RMK A01 T02660122  RH  041%=      5-min Rain = 0
KEN1 031459Z 28001KT 27/12 A3011 RMK A01 T02680122  RH  040%=      5-min Rain = 0
KEN1 031500Z 29002KT 27/12 A3011 RMK A01 T02690119  RH  039%=      5-min Rain = 0
KEN1 031501Z 29003KT 27/12 A3011 RMK A01 T02710120  RH  039%=      5-min Rain = 0
KEN1 031502Z 32005KT 27/12 A3011 RMK A01 T02730121  RH  039%=      5-min Rain = 0
KEN1 031503Z 35006KT 28/12 A3011 RMK A01 T02760122  RH  039%=      5-min Rain = 0
KEN1 031504Z 36006KT 28/12 A3011 RMK A01 T02760118  RH  037%=      5-min Rain = 0
KEN1 031505Z 35005KT 28/12 A3011 RMK A01 T02750117  RH  037%=      5-min Rain = 0
KEN1 031506Z 35004KT 27/12 A3011 RMK A01 T02740116  RH  037%=      5-min Rain = 0
KEN1 031507Z 34005KT 27/12 A3011 RMK A01 T02720117  RH  038%=      5-min Rain = 0
KEN1 031508Z 35004KT 27/12 A3011 RMK A01 T02710118  RH  039%=      5-min Rain = 0
KEN1 031509Z 00003KT 27/12 A3011 RMK A01 T02710119  RH  039%=      5-min Rain = 0
KEN1 031510Z 35002KT 27/12 A3011 RMK A01 T02720121  RH  039%=      5-min Rain = 0
KEN1 031511Z 30004KT 27/12 A3011 RMK A01 T02740122  RH  039%=      5-min Rain = 0
KEN1 031512Z 29006KT 28/12 A3011 RMK A01 T02750122  RH  039%=      5-min Rain = 0
KEN1 031513Z 28004KT 28/12 A3011 RMK A01 T02750121  RH  039%=      5-min Rain = 0
KEN1 031514Z 30003KT 27/12 A3011 RMK A01 T02740123  RH  039%=      5-min Rain = 0
KEN1 031515Z 31002KT 28/12 A3011 RMK A01 T02750123  RH  039%=      5-min Rain = 0
KEN1 031516Z 00003KT 28/12 A3011 RMK A01 T02750121  RH  039%=      5-min Rain = 0
KEN1 031517Z 00005KT 28/12 A3011 RMK A01 T02760119  RH  038%=      5-min Rain = 0
KEN1 031518Z 01004KT 28/12 A3011 RMK A01 T02760120  RH  038%=      5-min Rain = 0
KEN1 031519Z 03003KT 28/12 A3011 RMK A01 T02750122  RH  039%=      5-min Rain = 0
KEN1 031520Z 03003KT 28/12 A3011 RMK A01 T02750119  RH  038%=      5-min Rain = 0
KEN1 031521Z 03004KT 28/12 A3011 RMK A01 T02750120  RH  038%=      5-min Rain = 0
KEN1 031522Z 02006KT 28/12 A3011 RMK A01 T02760121  RH  038%=      5-min Rain = 0
KEN1 031523Z 01005KT 28/12 A3011 RMK A01 T02770120  RH  038%=      5-min Rain = 0
KEN1 031524Z 01004KT 28/12 A3011 RMK A01 T02760120  RH  038%=      5-min Rain = 0
KEN1 031525Z 00003KT 28/12 A3011 RMK A01 T02760120  RH  038%=      5-min Rain = 0
KEN1 031526Z 03003KT 28/12 A3011 RMK A01 T02760120  RH  038%=      5-min Rain = 0
KEN1 031527Z 05004KT 28/12 A301 RMK A01 T02780122  RH  038%=      5-min Rain = 0
KEN1 031528Z 03003KT 28/12 A301 RMK A01 T02780123  RH  038%=      5-min Rain = 0
KEN1 031529Z 33005KT 28/12 A301 RMK A01 T02800123  RH  038%=      5-min Rain = 0
KEN1 031530Z 33004KT 28/12 A301 RMK A01 T02810123  RH  038%=      5-min Rain = 0
KEN1 031531Z 01003KT 28/12 A301 RMK A01 T02830122  RH  037%=      5-min Rain = 0
KEN1 031532Z 01002KT 28/12 A301 RMK A01 T02840123  RH  037%=      5-min Rain = 0
KEN1 031533Z 33003KT 29/12 A301 RMK A01 T02850122  RH  037%=      5-min Rain = 0
KEN1 031534Z 27002KT 28/12 A301 RMK A01 T02840121  RH  036%=      5-min Rain = 0
KEN1 031535Z 23003KT 28/12 A301 RMK A01 T02800120  RH  037%=      5-min Rain = 0
KEN1 031536Z 23001KT 28/12 A301 RMK A01 T02780121  RH  038%=      5-min Rain = 0
KEN1 031537Z 18001KT 28/12 A301 RMK A01 T02780121  RH  038%=      5-min Rain = 0
KEN1 031538Z 34002KT 28/12 A301 RMK A01 T02790123  RH  038%=      5-min Rain = 0
KEN1 031539Z 01001KT 28/12 A301 RMK A01 T02820122  RH  037%=      5-min Rain = 0
KEN1 031540Z 01004KT 29/12 A301 RMK A01 T02850124  RH  037%=      5-min Rain = 0
KEN1 031541Z 02005KT 29/12 A301 RMK A01 T02870124  RH  036%=      5-min Rain = 0
KEN1 031542Z 03005KT 29/12 A301 RMK A01 T02870122  RH  036%=      5-min Rain = 0
KEN1 031543Z 06003KT 29/12 A301 RMK A01 T02850121  RH  036%=      5-min Rain = 0
KEN1 031544Z 34004KT 28/12 A301 RMK A01 T02840122  RH  037%=      5-min Rain = 0
KEN1 031545Z 34006KT 28/12 A301 RMK A01 T02840122  RH  037%=      5-min Rain = 0
KEN1 031546Z 30004KT 29/12 A301 RMK A01 T02860122  RH  036%=      5-min Rain = 0
KEN1 031547Z 33003KT 29/12 A301 RMK A01 T02860120  RH  036%=      5-min Rain = 0
KEN1 031548Z 34004KT 29/12 A301 RMK A01 T02860122  RH  036%=      5-min Rain = 0
KEN1 031549Z 00006KT 29/12 A301 RMK A01 T02860120  RH  036%=      5-min Rain = 0
KEN1 031550Z 01005KT 28/12 A301 RMK A01 T02840120  RH  036%=      5-min Rain = 0
KEN1 031551Z 01005KT 28/12 A301 RMK A01 T02840120  RH  036%=      5-min Rain = 0
KEN1 031552Z 01004KT 28/12 A301 RMK A01 T02840120  RH  036%=      5-min Rain = 0
KEN1 031553Z 01003KT 28/12 A301 RMK A01 T02830120  RH  036%=      5-min Rain = 0
KEN1 031554Z 36003KT 28/12 A301 RMK A01 T02820120  RH  037%=      5-min Rain = 0
KEN1 031555Z 35002KT 28/12 A301 RMK A01 T02820119  RH  036%=      5-min Rain = 0
KEN1 031556Z 09002KT 28/12 A301 RMK A01 T02830120  RH  036%=      5-min Rain = 0
KEN1 031557Z 09003KT 28/12 A301 RMK A01 T02840120  RH  036%=      5-min Rain = 0
KEN1 031558Z 10003KT 29/12 A301 RMK A01 T02850121  RH  036%=      5-min Rain = 0
KEN1 031559Z 12003KT 29/12 A301 RMK A01 T02850120  RH  036%=      5-min Rain = 0
KEN1 031600Z 10002KT 29/12 A301 RMK A01 T02860121  RH  036%=      5-min Rain = 0
KEN1 031601Z 03002KT 29/12 A301 RMK A01 T02870122  RH  036%=      5-min Rain = 0
KEN1 031602Z 01003KT 29/12 A301 RMK A01 T02890121  RH  035%=      5-min Rain = 0
KEN1 031603Z 01002KT 29/12 A301 RMK A01 T02900120  RH  035%=      5-min Rain = 0
KEN1 031604Z 02003KT 29/12 A301 RMK A01 T02900119  RH  035%=      5-min Rain = 0
KEN1 031605Z 04004KT 29/12 A301 RMK A01 T02900119  RH  035%=      5-min Rain = 0
KEN1 031606Z 04002KT 29/12 A301 RMK A01 T02900120  RH  035%=      5-min Rain = 0
KEN1 031607Z 34002KT 29/12 A301 RMK A01 T02890118  RH  035%=      5-min Rain = 0
KEN1 031608Z 31002KT 29/12 A301 RMK A01 T02890117  RH  035%=      5-min Rain = 0
KEN1 031609Z 36003KT 29/12 A301 RMK A01 T02880116  RH  035%=      5-min Rain = 0
KEN1 031610Z 36005KT 29/12 A301 RMK A01 T02880116  RH  034%=      5-min Rain = 0
KEN1 031611Z 01002KT 29/12 A301 RMK A01 T02880116  RH  035%=      5-min Rain = 0
KEN1 031612Z 31005KT 29/12 A301 RMK A01 T02880118  RH  035%=      5-min Rain = 0
KEN1 031613Z 30005KT 29/12 A301 RMK A01 T02900118  RH  034%=      5-min Rain = 0
KEN1 031614Z 28004KT 29/12 A301 RMK A01 T02900117  RH  034%=      5-min Rain = 0
KEN1 031615Z 29004KT 29/12 A301 RMK A01 T02890116  RH  034%=      5-min Rain = 0
KEN1 031616Z 30003KT 29/12 A301 RMK A01 T02890117  RH  034%=      5-min Rain = 0
KEN1 031617Z 33003KT 29/12 A301 RMK A01 T02900116  RH  034%=      5-min Rain = 0
KEN1 031618Z 35001KT 29/12 A301 RMK A01 T02900116  RH  034%=      5-min Rain = 0
KEN1 031619Z 31001KT 29/12 A301 RMK A01 T02910117  RH  034%=      5-min Rain = 0
KEN1 031620Z 00001KT 29/12 A3009 RMK A01 T02930117  RH  034%=      5-min Rain = 0
KEN1 031621Z 35003KT 30/12 A3009 RMK A01 T02950118  RH  034%=      5-min Rain = 0
KEN1 031622Z 35004KT 30/12 A3009 RMK A01 T02950118  RH  033%=      5-min Rain = 0
KEN1 031623Z 01003KT 30/12 A3009 RMK A01 T02950115  RH  033%=      5-min Rain = 0
KEN1 031624Z 01003KT 29/12 A3009 RMK A01 T02920116  RH  034%=      5-min Rain = 0
KEN1 031625Z 01003KT 29/12 A3009 RMK A01 T02920116  RH  034%=      5-min Rain = 0
KEN1 031626Z 03002KT 29/12 A3009 RMK A01 T02920116  RH  034%=      5-min Rain = 0
KEN1 031627Z 08003KT 29/12 A3009 RMK A01 T02920119  RH  034%=      5-min Rain = 0
KEN1 031628Z 08003KT 30/12 A3009 RMK A01 T02970122  RH  034%=      5-min Rain = 0
KEN1 031629Z 10003KT 30/12 A3009 RMK A01 T03000119  RH  033%=      5-min Rain = 0
KEN1 031630Z 11003KT 30/12 A3009 RMK A01 T02990119  RH  033%=      5-min Rain = 0
KEN1 031631Z 05004KT 30/12 A3009 RMK A01 T02990119  RH  033%=      5-min Rain = 0
KEN1 031632Z 10004KT 30/12 A3009 RMK A01 T02990122  RH  034%=      5-min Rain = 0
KEN1 031633Z 08004KT 30/12 A3009 RMK A01 T03030121  RH  033%=      5-min Rain = 0
KEN1 031634Z 08003KT 30/12 A3009 RMK A01 T03040120  RH  032%=      5-min Rain = 0
KEN1 031635Z 05003KT 30/12 A3009 RMK A01 T03040122  RH  033%=      5-min Rain = 0
KEN1 031636Z 07003KT 30/12 A3009 RMK A01 T03040118  RH  032%=      5-min Rain = 0
KEN1 031637Z 08003KT 30/12 A3009 RMK A01 T03020117  RH  032%=      5-min Rain = 0
KEN1 031638Z 08003KT 30/12 A3009 RMK A01 T03010119  RH  033%=      5-min Rain = 0
KEN1 031639Z 08004KT 30/12 A3009 RMK A01 T03000119  RH  033%=      5-min Rain = 0
KEN1 031640Z 07005KT 30/12 A3009 RMK A01 T03000119  RH  033%=      5-min Rain = 0
KEN1 031641Z 09003KT 30/12 A3009 RMK A01 T02990117  RH  033%=      5-min Rain = 0
KEN1 031642Z 15001KT 30/12 A3009 RMK A01 T02980117  RH  033%=      5-min Rain = 0
KEN1 031643Z 19001KT 30/12 A3009 RMK A01 T02970117  RH  033%=      5-min Rain = 0
KEN1 031644Z 15004KT 30/12 A3009 RMK A01 T02970118  RH  033%=      5-min Rain = 0
KEN1 031645Z 21004KT 30/12 A3009 RMK A01 T03010120  RH  033%=      5-min Rain = 0
KEN1 031646Z 21004KT 30/12 A3009 RMK A01 T03040118  RH  032%=      5-min Rain = 0
KEN1 031647Z 22003KT 30/12 A3009 RMK A01 T03030118  RH  032%=      5-min Rain = 0
KEN1 031648Z 23005KT 30/12 A3009 RMK A01 T03020117  RH  032%=      5-min Rain = 0
KEN1 031649Z 21005KT 30/12 A3009 RMK A01 T03020118  RH  032%=      5-min Rain = 0
KEN1 031650Z 21004KT 30/12 A3009 RMK A01 T03020118  RH  032%=      5-min Rain = 0
KEN1 031651Z 22004KT 30/12 A3009 RMK A01 T03030116  RH  032%=      5-min Rain = 0
KEN1 031652Z 24006KT 30/12 A3009 RMK A01 T03030117  RH  032%=      5-min Rain = 0
KEN1 031653Z 25004KT 30/12 A3009 RMK A01 T03030117  RH  032%=      5-min Rain = 0
KEN1 031654Z 23003KT 30/12 A3009 RMK A01 T03030115  RH  032%=      5-min Rain = 0
KEN1 031655Z 23001KT 30/12 A3009 RMK A01 T03010115  RH  032%=      5-min Rain = 0
KEN1 031656Z 20004KT 30/12 A3009 RMK A01 T03020118  RH  032%=      5-min Rain = 0
KEN1 031657Z 18003KT 30/12 A3009 RMK A01 T03030116  RH  032%=      5-min Rain = 0
KEN1 031658Z 20003KT 31/12 A3009 RMK A01 T03050116  RH  031%=      5-min Rain = 0
KEN1 031659Z 19003KT 30/11 A3009 RMK A01 T03040114  RH  031%=      5-min Rain = 0
KEN1 031700Z 19001KT 30/11 A3009 RMK A01 T03030114  RH  031%=      5-min Rain = 0
KEN1 031701Z 18001KT 30/11 A3008 RMK A01 T03020114  RH  031%=      5-min Rain = 0
KEN1 031702Z 18001KT 30/11 A3008 RMK A01 T03010114  RH  032%=      5-min Rain = 0
KEN1 031703Z 19001KT 30/11 A3008 RMK A01 T03020114  RH  031%=      5-min Rain = 0
KEN1 031704Z 20004KT 30/11 A3008 RMK A01 T03030113  RH  031%=      5-min Rain = 0
KEN1 031705Z 19004KT 30/11 A3008 RMK A01 T03040113  RH  031%=      5-min Rain = 0
KEN1 031706Z 20005KT 30/11 A3008 RMK A01 T03040113  RH  031%=      5-min Rain = 0
KEN1 031707Z 18006KT 31/11 A3008 RMK A01 T03050114  RH  031%=      5-min Rain = 0
KEN1 031708Z 17005KT 31/11 A3008 RMK A01 T03050113  RH  031%=      5-min Rain = 0
KEN1 031709Z 16004KT 30/12 A3008 RMK A01 T03030115  RH  031%=      5-min Rain = 0
KEN1 031710Z 18002KT 30/12 A3008 RMK A01 T03020115  RH  031%=      5-min Rain = 0
KEN1 031711Z 23001KT 30/11 A3008 RMK A01 T03020114  RH  031%=      5-min Rain = 0
KEN1 031712Z 23001KT 30/11 A3008 RMK A01 T03030113  RH  031%=      5-min Rain = 0
KEN1 031713Z 17003KT 31/12 A3008 RMK A01 T03050115  RH  031%=      5-min Rain = 0
KEN1 031714Z 13004KT 31/11 A3008 RMK A01 T03060112  RH  030%=      5-min Rain = 0
KEN1 031715Z 10004KT 31/11 A3008 RMK A01 T03070114  RH  031%=      5-min Rain = 0
KEN1 031716Z 09003KT 31/12 A3008 RMK A01 T03060116  RH  031%=      5-min Rain = 0
KEN1 031717Z 07003KT 31/12 A3008 RMK A01 T03060115  RH  031%=      5-min Rain = 0
KEN1 031718Z 07003KT 31/11 A3008 RMK A01 T03060114  RH  031%=      5-min Rain = 0
KEN1 031719Z 10003KT 31/11 A3008 RMK A01 T03070112  RH  030%=      5-min Rain = 0
KEN1 031720Z 13002KT 31/11 A3008 RMK A01 T03080113  RH  030%=      5-min Rain = 0
KEN1 031721Z 19003KT 31/12 A3008 RMK A01 T03110115  RH  030%=      5-min Rain = 0
KEN1 031722Z 23003KT 31/12 A3008 RMK A01 T03140116  RH  030%=      5-min Rain = 0
KEN1 031723Z 22003KT 32/11 A3008 RMK A01 T03150114  RH  029%=      5-min Rain = 0
KEN1 031724Z 21005KT 31/11 A3008 RMK A01 T03120114  RH  030%=      5-min Rain = 0
KEN1 031725Z 18007KT 31/11 A3008 RMK A01 T03120113  RH  029%=      5-min Rain = 0
KEN1 031726Z 19006KT 31/11 A3008 RMK A01 T03110112  RH  029%=      5-min Rain = 0
KEN1 031727Z 19005KT 31/11 A3008 RMK A01 T03100113  RH  030%=      5-min Rain = 0
KEN1 031728Z 20005KT 31/11 A3008 RMK A01 T03090112  RH  030%=      5-min Rain = 0
KEN1 031729Z 22003KT 31/11 A3008 RMK A01 T03090110  RH  029%=      5-min Rain = 0
KEN1 031730Z 25003KT 31/11 A3008 RMK A01 T03090109  RH  029%=      5-min Rain = 0
KEN1 031731Z 25001KT 31/11 A3008 RMK A01 T03080109  RH  029%=      5-min Rain = 0
KEN1 031732Z 04001KT 31/11 A3008 RMK A01 T03090108  RH  029%=      5-min Rain = 0
KEN1 031733Z 00001KT 31/11 A3008 RMK A01 T03100109  RH  029%=      5-min Rain = 0
KEN1 031734Z 24003KT 31/11 A3008 RMK A01 T03110108  RH  029%=      5-min Rain = 0
KEN1 031735Z 27001KT 31/11 A3008 RMK A01 T03120106  RH  028%=      5-min Rain = 0
KEN1 031736Z 30002KT 31/11 A3007 RMK A01 T03100108  RH  029%=      5-min Rain = 0
KEN1 031737Z 24000KT 31/11 A3007 RMK A01 T03110109  RH  029%=      5-min Rain = 0
KEN1 031738Z 14000KT 31/11 A3007 RMK A01 T03110110  RH  029%=      5-min Rain = 0
KEN1 031739Z 24001KT 31/11 A3007 RMK A01 T03130111  RH  029%=      5-min Rain = 0
KEN1 031740Z 26004KT 31/11 A3007 RMK A01 T03140112  RH  029%=      5-min Rain = 0
KEN1 031741Z 26001KT 31/11 A3007 RMK A01 T03140112  RH  029%=      5-min Rain = 0
KEN1 031742Z 11001KT 31/11 A3007 RMK A01 T03140111  RH  029%=      5-min Rain = 0
KEN1 031743Z 20004KT 32/11 A3007 RMK A01 T03150111  RH  028%=      5-min Rain = 0
KEN1 031744Z 21005KT 32/11 A3007 RMK A01 T03170109  RH  028%=      5-min Rain = 0
KEN1 031745Z 23005KT 32/11 A3007 RMK A01 T03160109  RH  028%=      5-min Rain = 0
KEN1 031746Z 25005KT 32/11 A3007 RMK A01 T03170106  RH  027%=      5-min Rain = 0
KEN1 031747Z 27003KT 32/11 A3007 RMK A01 T03170106  RH  027%=      5-min Rain = 0
KEN1 031748Z 21001KT 32/11 A3007 RMK A01 T03170109  RH  028%=      5-min Rain = 0
KEN1 031749Z 18005KT 32/11 A3007 RMK A01 T03190110  RH  028%=      5-min Rain = 0
KEN1 031750Z 16005KT 32/11 A3007 RMK A01 T03200110  RH  028%=      5-min Rain = 0
KEN1 031751Z 18005KT 32/11 A3007 RMK A01 T03190110  RH  028%=      5-min Rain = 0
KEN1 031752Z 21007KT 32/11 A3007 RMK A01 T03180113  RH  028%=      5-min Rain = 0
KEN1 031753Z 22008KT 32/12 A3007 RMK A01 T03210115  RH  028%=      5-min Rain = 0
KEN1 031754Z 22007KT 32/11 A3007 RMK A01 T03220110  RH  027%=      5-min Rain = 0
KEN1 031755Z 22006KT 32/11 A3007 RMK A01 T03190110  RH  028%=      5-min Rain = 0
KEN1 031756Z 23006KT 32/11 A3007 RMK A01 T03160110  RH  028%=      5-min Rain = 0
KEN1 031757Z 24007KT 32/11 A3007 RMK A01 T03170110  RH  028%=      5-min Rain = 0
KEN1 031758Z 23005KT 32/11 A3007 RMK A01 T03180108  RH  028%=      5-min Rain = 0
KEN1 031759Z 25005KT 32/11 A3007 RMK A01 T03170110  RH  028%=      5-min Rain = 0
KEN1 031800Z 25006KT 32/11 A3007 RMK A01 T03170109  RH  028%=      5-min Rain = 0
KEN1 031801Z 26005KT 32/11 A3007 RMK A01 T03170110  RH  028%=      5-min Rain = 0
KEN1 031802Z 28004KT 32/11 A3007 RMK A01 T03180111  RH  028%=      5-min Rain = 0
KEN1 031803Z 28004KT 32/11 A3007 RMK A01 T03180111  RH  028%=      5-min Rain = 0
KEN1 031804Z 30005KT 32/11 A3006 RMK A01 T03180111  RH  028%=      5-min Rain = 0
KEN1 031805Z 30004KT 32/11 A3006 RMK A01 T03180109  RH  028%=      5-min Rain = 0
KEN1 031806Z 24003KT 32/11 A3006 RMK A01 T03190109  RH  028%=      5-min Rain = 0
KEN1 031807Z 15006G11KT 32/11 A3006 RMK A01 T03210110  RH  027%=      5-min Rain = 0
KEN1 031808Z 14008KT 33/11 A3006 RMK A01 T03250107  RH  026%=      5-min Rain = 0
KEN1 031809Z 13006KT 33/11 A3006 RMK A01 T03260110  RH  027%=      5-min Rain = 0
KEN1 031810Z 13006KT 33/11 A3006 RMK A01 T03270109  RH  026%=      5-min Rain = 0
KEN1 031811Z 11007KT 33/11 A3006 RMK A01 T03280110  RH  026%=      5-min Rain = 0
KEN1 031812Z 12008KT 33/11 A3006 RMK A01 T03290113  RH  027%=      5-min Rain = 0
KEN1 031813Z 11008KT 33/11 A3006 RMK A01 T03300110  RH  026%=      5-min Rain = 0
KEN1 031814Z 08007KT 33/11 A3006 RMK A01 T03270110  RH  027%=      5-min Rain = 0
KEN1 031815Z 07007KT 33/11 A3006 RMK A01 T03250110  RH  027%=      5-min Rain = 0
KEN1 031816Z 11007KT 33/11 A3006 RMK A01 T03250112  RH  027%=      5-min Rain = 0
KEN1 031817Z 11005KT 33/11 A3006 RMK A01 T03290109  RH  026%=      5-min Rain = 0
KEN1 031818Z 08004KT 33/11 A3006 RMK A01 T03260109  RH  026%=      5-min Rain = 0
KEN1 031819Z 12005KT 32/11 A3006 RMK A01 T03240109  RH  027%=      5-min Rain = 0
KEN1 031820Z 14008KT 33/11 A3006 RMK A01 T03260107  RH  026%=      5-min Rain = 0
KEN1 031821Z 15006KT 33/10 A3006 RMK A01 T03250101  RH  025%=      5-min Rain = 0
KEN1 031822Z 10004KT 32/10 A3006 RMK A01 T03230100  RH  025%=      5-min Rain = 0
KEN1 031823Z 09007KT 32/10 A3005 RMK A01 T03230103  RH  026%=      5-min Rain = 0
KEN1 031824Z 11005KT 32/10 A3005 RMK A01 T03230104  RH  026%=      5-min Rain = 0
KEN1 031825Z 12004KT 33/10 A3005 RMK A01 T03260102  RH  025%=      5-min Rain = 0
KEN1 031826Z 14005KT 33/10 A3005 RMK A01 T03260102  RH  025%=      5-min Rain = 0
KEN1 031827Z 20008KT 33/10 A3005 RMK A01 T03260104  RH  026%=      5-min Rain = 0
KEN1 031828Z 21010KT 33/10 A3005 RMK A01 T03300103  RH  025%=      5-min Rain = 0
KEN1 031829Z 20009KT 33/11 A3005 RMK A01 T03300105  RH  025%=      5-min Rain = 0
KEN1 031830Z 22007KT 33/10 A3005 RMK A01 T03320103  RH  025%=      5-min Rain = 0
KEN1 031831Z 24004KT 33/10 A3005 RMK A01 T03300101  RH  025%=      5-min Rain = 0
KEN1 031832Z 21004G12KT 33/10 A3005 RMK A01 T03260099  RH  025%=      5-min Rain = 0
KEN1 031833Z 22010KT 33/11 A3005 RMK A01 T03260105  RH  026%=      5-min Rain = 0
KEN1 031834Z 21009KT 33/10 A3005 RMK A01 T03290104  RH  025%=      5-min Rain = 0
KEN1 031835Z 21003KT 33/10 A3005 RMK A01 T03290100  RH  025%=      5-min Rain = 0
KEN1 031836Z 22001KT 33/10 A3005 RMK A01 T03260100  RH  025%=      5-min Rain = 0
KEN1 031837Z 22005KT 33/10 A3005 RMK A01 T03280104  RH  025%=      5-min Rain = 0
KEN1 031838Z 21007KT 33/11 A3005 RMK A01 T03320105  RH  025%=      5-min Rain = 0
KEN1 031839Z 20007KT 34/11 A3005 RMK A01 T03370105  RH  024%=      5-min Rain = 0
KEN1 031840Z 22006KT 34/10 A3005 RMK A01 T03360103  RH  024%=      5-min Rain = 0
KEN1 031841Z 23005KT 34/10 A3004 RMK A01 T03360097  RH  023%=      5-min Rain = 0
KEN1 031842Z 20004KT 33/09 A3004 RMK A01 T03330093  RH  023%=      5-min Rain = 0
KEN1 031843Z 23007KT 33/10 A3004 RMK A01 T03300096  RH  024%=      5-min Rain = 0
KEN1 031844Z 23006KT 33/10 A3004 RMK A01 T03300095  RH  024%=      5-min Rain = 0
KEN1 031845Z 23007G12KT 33/10 A3004 RMK A01 T03290099  RH  024%=      5-min Rain = 0
KEN1 031846Z 22011KT 33/10 A3004 RMK A01 T03310101  RH  025%=      5-min Rain = 0
KEN1 031847Z 21010KT 33/10 A3004 RMK A01 T03330101  RH  024%=      5-min Rain = 0
KEN1 031848Z 20008KT 33/10 A3004 RMK A01 T03320098  RH  024%=      5-min Rain = 0
KEN1 031849Z 21009KT 33/10 A3004 RMK A01 T03320099  RH  024%=      5-min Rain = 0
KEN1 031850Z 22005KT 33/09 A3004 RMK A01 T03320094  RH  023%=      5-min Rain = 0
KEN1 031851Z 20003KT 33/10 A3004 RMK A01 T03300097  RH  024%=      5-min Rain = 0
KEN1 031852Z 14001KT 33/10 A3004 RMK A01 T03330099  RH  024%=      5-min Rain = 0
KEN1 031853Z 13002KT 34/10 A3004 RMK A01 T03370099  RH  023%=      5-min Rain = 0
KEN1 031854Z 18001KT 34/10 A3004 RMK A01 T03380096  RH  023%=      5-min Rain = 0
KEN1 031855Z 19003KT 34/10 A3004 RMK A01 T03380099  RH  023%=      5-min Rain = 0
KEN1 031856Z 19004KT 34/10 A3004 RMK A01 T03370098  RH  023%=      5-min Rain = 0
KEN1 031857Z 17004KT 34/10 A3004 RMK A01 T03350097  RH  023%=      5-min Rain = 0
KEN1 031858Z 15006KT 33/09 A3004 RMK A01 T03340092  RH  023%=      5-min Rain = 0
KEN1 031859Z 17008KT 33/09 A3004 RMK A01 T03330090  RH  022%=      5-min Rain = 0
KEN1 031900Z 19008KT 33/10 A3004 RMK A01 T03330095  RH  023%=      5-min Rain = 0
KEN1 031901Z 20009KT 34/09 A3004 RMK A01 T03360093  RH  022%=      5-min Rain = 0
KEN1 031902Z 20011KT 34/09 A3004 RMK A01 T03380093  RH  022%=      5-min Rain = 0
KEN1 031903Z 18008KT 34/10 A3004 RMK A01 T03370095  RH  023%=      5-min Rain = 0
KEN1 031904Z 18010KT 34/09 A3004 RMK A01 T03350094  RH  023%=      5-min Rain = 0
KEN1 031905Z 16007KT 33/09 A3004 RMK A01 T03340091  RH  022%=      5-min Rain = 0
KEN1 031906Z 19005KT 33/09 A3004 RMK A01 T03340089  RH  022%=      5-min Rain = 0
KEN1 031907Z 18007KT 34/09 A3003 RMK A01 T03350090  RH  022%=      5-min Rain = 0
KEN1 031908Z 20008KT 34/09 A3003 RMK A01 T03380094  RH  022%=      5-min Rain = 0
KEN1 031909Z 19007KT 34/09 A3003 RMK A01 T03410094  RH  022%=      5-min Rain = 0
KEN1 031910Z 20008KT 34/09 A3003 RMK A01 T03400092  RH  022%=      5-min Rain = 0
KEN1 031911Z 20006KT 34/10 A3003 RMK A01 T03360095  RH  023%=      5-min Rain = 0
KEN1 031912Z 21004KT 34/10 A3003 RMK A01 T03350095  RH  023%=      5-min Rain = 0
KEN1 031913Z 20005KT 33/10 A3003 RMK A01 T03340097  RH  023%=      5-min Rain = 0
KEN1 031914Z 23004G9KT 33/10 A3003 RMK A01 T03340096  RH  023%=      5-min Rain = 0
KEN1 031915Z 20008KT 34/10 A3003 RMK A01 T03350095  RH  023%=      5-min Rain = 0
KEN1 031916Z 19007KT 33/10 A3003 RMK A01 T03340096  RH  023%=      5-min Rain = 0
KEN1 031917Z 19006KT 33/10 A3003 RMK A01 T03340096  RH  023%=      5-min Rain = 0
KEN1 031918Z 25003KT 34/09 A3003 RMK A01 T03350094  RH  023%=      5-min Rain = 0
KEN1 031919Z 33003KT 33/10 A3003 RMK A01 T03340097  RH  023%=      5-min Rain = 0
KEN1 031920Z 35004KT 33/10 A3002 RMK A01 T03330097  RH  024%=      5-min Rain = 0
KEN1 031921Z 16005G11KT 33/10 A3003 RMK A01 T03340098  RH  024%=      5-min Rain = 0
KEN1 031922Z 20009KT 34/10 A3003 RMK A01 T03370100  RH  023%=      5-min Rain = 0
KEN1 031923Z 21005KT 34/10 A3003 RMK A01 T03360098  RH  023%=      5-min Rain = 0
KEN1 031924Z 18003KT 34/10 A3002 RMK A01 T03350101  RH  024%=      5-min Rain = 0
KEN1 031925Z 17006KT 34/10 A3002 RMK A01 T03360099  RH  023%=      5-min Rain = 0
KEN1 031926Z 17007KT 34/10 A3002 RMK A01 T03360099  RH  023%=      5-min Rain = 0
KEN1 031927Z 19005KT 33/10 A3002 RMK A01 T03330099  RH  024%=      5-min Rain = 0
KEN1 031928Z 18001KT 33/10 A3002 RMK A01 T03290098  RH  024%=      5-min Rain = 0
KEN1 031929Z 20001KT 33/10 A3002 RMK A01 T03270098  RH  024%=      5-min Rain = 0
KEN1 031930Z 21006KT 33/10 A3002 RMK A01 T03270098  RH  025%=      5-min Rain = 0
KEN1 031931Z 21006KT 33/10 A3002 RMK A01 T03260097  RH  024%=      5-min Rain = 0
KEN1 031932Z 21005KT 33/10 A3002 RMK A01 T03250098  RH  025%=      5-min Rain = 0
KEN1 031933Z 18007KT 33/10 A3002 RMK A01 T03270099  RH  025%=      5-min Rain = 0
KEN1 031934Z 19007KT 33/10 A3002 RMK A01 T03320100  RH  024%=      5-min Rain = 0
KEN1 031935Z 17003KT 33/10 A3002 RMK A01 T03340099  RH  024%=      5-min Rain = 0
KEN1 031936Z 08003KT 33/10 A3002 RMK A01 T03340098  RH  024%=      5-min Rain = 0
KEN1 031937Z 11001KT 33/10 A3002 RMK A01 T03320098  RH  024%=      5-min Rain = 0
KEN1 031938Z 16004KT 33/10 A3002 RMK A01 T03330101  RH  024%=      5-min Rain = 0
KEN1 031939Z 17004KT 34/10 A3002 RMK A01 T03360099  RH  023%=      5-min Rain = 0
KEN1 031940Z 12003KT 34/10 A3002 RMK A01 T03350099  RH  024%=      5-min Rain = 0
KEN1 031941Z 17002G7KT 33/10 A3002 RMK A01 T03340100  RH  024%=      5-min Rain = 0
KEN1 031942Z 17006KT 33/10 A3002 RMK A01 T03330100  RH  024%=      5-min Rain = 0
KEN1 031943Z 17006KT 33/10 A3002 RMK A01 T03340099  RH  024%=      5-min Rain = 0
KEN1 031944Z 21003KT 34/10 A3002 RMK A01 T03350099  RH  023%=      5-min Rain = 0
KEN1 031945Z 06002KT 33/10 A3001 RMK A01 T03330098  RH  024%=      5-min Rain = 0
KEN1 031946Z 18005KT 33/10 A3001 RMK A01 T03310099  RH  024%=      5-min Rain = 0
KEN1 031947Z 18007KT 33/10 A3001 RMK A01 T03300099  RH  024%=      5-min Rain = 0
KEN1 031948Z 22007KT 33/10 A3001 RMK A01 T03300099  RH  024%=      5-min Rain = 0
KEN1 031949Z 22008KT 33/10 A3001 RMK A01 T03300098  RH  024%=      5-min Rain = 0
KEN1 031950Z 19007KT 33/10 A3001 RMK A01 T03300099  RH  024%=      5-min Rain = 0
KEN1 031951Z 21008KT 33/10 A3001 RMK A01 T03320099  RH  024%=      5-min Rain = 0
KEN1 031952Z 20007KT 33/10 A3001 RMK A01 T03320097  RH  024%=      5-min Rain = 0
KEN1 031953Z 18006KT 33/10 A3001 RMK A01 T03310099  RH  024%=      5-min Rain = 0
KEN1 031954Z 17007KT 33/10 A3001 RMK A01 T03310103  RH  025%=      5-min Rain = 0
KEN1 031955Z 18007KT 33/10 A3001 RMK A01 T03310101  RH  024%=      5-min Rain = 0
KEN1 031956Z 19005KT 33/10 A3001 RMK A01 T03310101  RH  024%=      5-min Rain = 0
KEN1 031957Z 15007KT 33/10 A3001 RMK A01 T03300100  RH  024%=      5-min Rain = 0
KEN1 031958Z 16007KT 33/10 A3001 RMK A01 T03320100  RH  024%=      5-min Rain = 0
KEN1 031959Z 17011KT 33/10 A3001 RMK A01 T03340098  RH  024%=      5-min Rain = 0
KEN1 032000Z 18010KT 34/10 A3001 RMK A01 T03370098  RH  023%=      5-min Rain = 0
KEN1 032001Z 18009KT 34/10 A3001 RMK A01 T03400097  RH  023%=      5-min Rain = 0
KEN1 032002Z 17010KT 34/10 A3001 RMK A01 T03400097  RH  023%=      5-min Rain = 0
KEN1 032003Z 19008KT 34/10 A3001 RMK A01 T03390096  RH  023%=      5-min Rain = 0
KEN1 032004Z 18010KT 34/10 A3001 RMK A01 T03360097  RH  023%=      5-min Rain = 0
KEN1 032005Z 18008KT 34/10 A3001 RMK A01 T03350095  RH  023%=      5-min Rain = 0
KEN1 032006Z 16010KT 33/09 A3001 RMK A01 T03320094  RH  023%=      5-min Rain = 0
KEN1 032007Z 15009KT 33/10 A3001 RMK A01 T03330096  RH  023%=      5-min Rain = 0
KEN1 032008Z 18009KT 34/10 A3001 RMK A01 T03380097  RH  023%=      5-min Rain = 0
KEN1 032009Z 19007KT 34/10 A3001 RMK A01 T03380097  RH  023%=      5-min Rain = 0
KEN1 032010Z 22008KT 34/10 A3001 RMK A01 T03380098  RH  023%=      5-min Rain = 0
KEN1 032011Z 20007KT 34/10 A30 RMK A01 T03380098  RH  023%=      5-min Rain = 0
KEN1 032012Z 15007KT 34/10 A30 RMK A01 T03410099  RH  023%=      5-min Rain = 0
KEN1 032013Z 15006KT 34/10 A3001 RMK A01 T03430096  RH  022%=      5-min Rain = 0
KEN1 032014Z 18006KT 34/10 A30 RMK A01 T03420099  RH  023%=      5-min Rain = 0
KEN1 032015Z 20009KT 34/10 A30 RMK A01 T03430099  RH  022%=      5-min Rain = 0
KEN1 032016Z 19008KT 35/10 A30 RMK A01 T03460101  RH  022%=      5-min Rain = 0
KEN1 032017Z 15008KT 35/10 A30 RMK A01 T03510102  RH  022%=      5-min Rain = 0
KEN1 032018Z 15006KT 35/10 A30 RMK A01 T03520098  RH  021%=      5-min Rain = 0
KEN1 032019Z 16004KT 35/10 A30 RMK A01 T03490097  RH  022%=      5-min Rain = 0
KEN1 032020Z 20006KT 35/10 A30 RMK A01 T03480101  RH  022%=      5-min Rain = 0
KEN1 032021Z 22007KT 35/10 A30 RMK A01 T03490099  RH  022%=      5-min Rain = 0
KEN1 032022Z 23005KT 35/10 A30 RMK A01 T03450096  RH  022%=      5-min Rain = 0
KEN1 032023Z 23006KT 34/10 A30 RMK A01 T03440100  RH  023%=      5-min Rain = 0
KEN1 032024Z 23005KT 35/10 A30 RMK A01 T03450097  RH  022%=      5-min Rain = 0
KEN1 032025Z 17008KT 35/10 A30 RMK A01 T03470099  RH  022%=      5-min Rain = 0
KEN1 032026Z 14006KT 35/10 A30 RMK A01 T03460097  RH  022%=      5-min Rain = 0
KEN1 032027Z 12006KT 35/10 A30 RMK A01 T03450097  RH  022%=      5-min Rain = 0
KEN1 032028Z 13005KT 34/10 A30 RMK A01 T03440097  RH  022%=      5-min Rain = 0
KEN1 032029Z 15004KT 34/10 A30 RMK A01 T03410097  RH  022%=      5-min Rain = 0
KEN1 032030Z 19005KT 34/10 A30 RMK A01 T03390096  RH  023%=      5-min Rain = 0
KEN1 032031Z 21008KT 34/10 A30 RMK A01 T03390097  RH  023%=      5-min Rain = 0
KEN1 032032Z 20012KT 34/10 A30 RMK A01 T03390097  RH  023%=      5-min Rain = 0
KEN1 032033Z 20010KT 34/09 A30 RMK A01 T03370094  RH  023%=      5-min Rain = 0
KEN1 032034Z 20008KT 33/09 A30 RMK A01 T03340094  RH  023%=      5-min Rain = 0
KEN1 032035Z 20007KT 33/09 A30 RMK A01 T03320094  RH  023%=      5-min Rain = 0
KEN1 032036Z 21008KT 33/10 A30 RMK A01 T03310095  RH  023%=      5-min Rain = 0
KEN1 032037Z 23005KT 33/09 A30 RMK A01 T03310094  RH  023%=      5-min Rain = 0
KEN1 032038Z 23004KT 33/09 A30 RMK A01 T03300094  RH  023%=      5-min Rain = 0
KEN1 032039Z 21003KT 33/09 A30 RMK A01 T03300094  RH  024%=      5-min Rain = 0
KEN1 032040Z 18003KT 33/10 A30 RMK A01 T03300096  RH  024%=      5-min Rain = 0
KEN1 032041Z 16003KT 33/09 A30 RMK A01 T03310094  RH  023%=      5-min Rain = 0
KEN1 032042Z 16002KT 33/09 A30 RMK A01 T03310093  RH  023%=      5-min Rain = 0
KEN1 032043Z 16001KT 33/09 A30 RMK A01 T03300094  RH  023%=      5-min Rain = 0
KEN1 032044Z 15003KT 33/10 A30 RMK A01 T03310095  RH  023%=      5-min Rain = 0
KEN1 032045Z 15002KT 33/09 A30 RMK A01 T03320093  RH  023%=      5-min Rain = 0
KEN1 032046Z 16002KT 33/09 A30 RMK A01 T03320094  RH  023%=      5-min Rain = 0
KEN1 032047Z 15003KT 33/09 A2999 RMK A01 T03320094  RH  023%=      5-min Rain = 0
KEN1 032048Z 15001KT 33/09 A2999 RMK A01 T03310094  RH  023%=      5-min Rain = 0
KEN1 032049Z 13001KT 33/09 A2999 RMK A01 T03310094  RH  023%=      5-min Rain = 0
KEN1 032050Z 08001KT 33/09 A2999 RMK A01 T03300093  RH  023%=      5-min Rain = 0
KEN1 032051Z 19003KT 33/09 A2999 RMK A01 T03290094  RH  023%=      5-min Rain = 0
KEN1 032052Z 16004KT 33/09 A2999 RMK A01 T03300093  RH  023%=      5-min Rain = 0
KEN1 032053Z 17004KT 33/09 A2999 RMK A01 T03290093  RH  023%=      5-min Rain = 0
KEN1 032054Z 18003KT 33/09 A2999 RMK A01 T03290094  RH  023%=      5-min Rain = 0
KEN1 032055Z 12002KT 33/09 A2999 RMK A01 T03290094  RH  024%=      5-min Rain = 0
KEN1 032056Z 09001KT 33/09 A2999 RMK A01 T03300093  RH  023%=      5-min Rain = 0
KEN1 032057Z 11003KT 33/10 A2999 RMK A01 T03300095  RH  024%=      5-min Rain = 0
KEN1 032058Z 15003KT 33/10 A2999 RMK A01 T03300096  RH  024%=      5-min Rain = 0
KEN1 032059Z 15004KT 33/10 A2999 RMK A01 T03310096  RH  024%=      5-min Rain = 0
KEN1 032100Z 17008G14KT 33/10 A2999 RMK A01 T03320096  RH  023%=      5-min Rain = 0
KEN1 032101Z 16012KT 33/10 A2999 RMK A01 T03330096  RH  023%=      5-min Rain = 0
KEN1 032102Z 17011KT 33/10 A2999 RMK A01 T03330096  RH  023%=      5-min Rain = 0
KEN1 032103Z 16010KT 33/09 A2999 RMK A01 T03340094  RH  023%=      5-min Rain = 0
KEN1 032104Z 16008KT 33/10 A2999 RMK A01 T03320095  RH  023%=      5-min Rain = 0
KEN1 032105Z 16007KT 33/10 A2999 RMK A01 T03320096  RH  023%=      5-min Rain = 0
KEN1 032106Z 13006KT 33/10 A2999 RMK A01 T03320096  RH  024%=      5-min Rain = 0
KEN1 032107Z 13007KT 33/10 A2999 RMK A01 T03320095  RH  023%=      5-min Rain = 0
KEN1 032108Z 13006KT 33/09 A2999 RMK A01 T03320094  RH  023%=      5-min Rain = 0
KEN1 032109Z 14005KT 33/09 A2999 RMK A01 T03320094  RH  023%=      5-min Rain = 0
KEN1 032110Z 13004KT 33/10 A2999 RMK A01 T03310095  RH  023%=      5-min Rain = 0
KEN1 032111Z 11005KT 33/10 A2999 RMK A01 T03310096  RH  024%=      5-min Rain = 0
KEN1 032112Z 10003KT 33/09 A2999 RMK A01 T03290094  RH  024%=      5-min Rain = 0
KEN1 032113Z 10004KT 33/10 A2999 RMK A01 T03290098  RH  024%=      5-min Rain = 0
KEN1 032114Z 11004KT 33/10 A2999 RMK A01 T03290101  RH  025%=      5-min Rain = 0
KEN1 032115Z 13004KT 33/10 A2999 RMK A01 T03300099  RH  024%=      5-min Rain = 0
KEN1 032116Z 15004KT 33/09 A2999 RMK A01 T03320094  RH  023%=      5-min Rain = 0
KEN1 032117Z 16003KT 33/09 A2999 RMK A01 T03320094  RH  023%=      5-min Rain = 0
KEN1 032118Z 14004KT 33/10 A2999 RMK A01 T03310096  RH  024%=      5-min Rain = 0
KEN1 032119Z 16004KT 33/10 A2999 RMK A01 T03310096  RH  024%=      5-min Rain = 0
KEN1 032120Z 17003KT 33/10 A2999 RMK A01 T03320095  RH  023%=      5-min Rain = 0
KEN1 032121Z 17002KT 33/10 A2999 RMK A01 T03320095  RH  023%=      5-min Rain = 0
KEN1 032122Z 17002KT 33/10 A2999 RMK A01 T03320097  RH  024%=      5-min Rain = 0
KEN1 032123Z 19002KT 33/10 A2999 RMK A01 T03330096  RH  023%=      5-min Rain = 0
KEN1 032124Z 22002KT 33/10 A2999 RMK A01 T03340095  RH  023%=      5-min Rain = 0
KEN1 032125Z 22006KT 33/10 A2999 RMK A01 T03340096  RH  023%=      5-min Rain = 0
KEN1 032126Z 23006KT 33/10 A2999 RMK A01 T03340095  RH  023%=      5-min Rain = 0
KEN1 032127Z 25007KT 33/10 A2999 RMK A01 T03340098  RH  024%=      5-min Rain = 0
KEN1 032128Z 24007KT 34/10 A2998 RMK A01 T03350095  RH  023%=      5-min Rain = 0
KEN1 032129Z 23006KT 34/09 A2998 RMK A01 T03350093  RH  023%=      5-min Rain = 0
KEN1 032130Z 23004KT 33/09 A2998 RMK A01 T03330092  RH  023%=      5-min Rain = 0
KEN1 032131Z 23005KT 33/09 A2998 RMK A01 T03320093  RH  023%=      5-min Rain = 0
KEN1 032132Z 23007KT 33/09 A2998 RMK A01 T03320094  RH  023%=      5-min Rain = 0
KEN1 032133Z 28003KT 33/09 A2998 RMK A01 T03330091  RH  023%=      5-min Rain = 0
KEN1 032134Z 26003KT 33/09 A2998 RMK A01 T03320091  RH  023%=      5-min Rain = 0
KEN1 032135Z 23003KT 33/09 A2998 RMK A01 T03310092  RH  023%=      5-min Rain = 0
KEN1 032136Z 24004KT 33/09 A2998 RMK A01 T03320092  RH  023%=      5-min Rain = 0
KEN1 032137Z 23006KT 33/10 A2998 RMK A01 T03330095  RH  023%=      5-min Rain = 0
KEN1 032138Z 24008KT 34/10 A2998 RMK A01 T03360096  RH  023%=      5-min Rain = 0
KEN1 032139Z 25006KT 34/09 A2998 RMK A01 T03370094  RH  022%=      5-min Rain = 0
KEN1 032140Z 26008KT 34/10 A2998 RMK A01 T03390095  RH  022%=      5-min Rain = 0
KEN1 032141Z 23007KT 34/09 A2998 RMK A01 T03390094  RH  022%=      5-min Rain = 0
KEN1 032142Z 22010KT 34/10 A2998 RMK A01 T03380096  RH  023%=      5-min Rain = 0
KEN1 032143Z 23009KT 34/10 A2998 RMK A01 T03380096  RH  023%=      5-min Rain = 0
KEN1 032144Z 22008KT 34/10 A2998 RMK A01 T03380095  RH  022%=      5-min Rain = 0
KEN1 032145Z 21010KT 34/10 A2998 RMK A01 T03370095  RH  023%=      5-min Rain = 0
KEN1 032146Z 20008KT 34/10 A2998 RMK A01 T03370095  RH  023%=      5-min Rain = 0
KEN1 032147Z 21008KT 34/09 A2998 RMK A01 T03380093  RH  022%=      5-min Rain = 0
KEN1 032148Z 23011KT 34/10 A2998 RMK A01 T03390096  RH  023%=      5-min Rain = 0
KEN1 032149Z 23010KT 34/09 A2998 RMK A01 T03420094  RH  022%=      5-min Rain = 0
KEN1 032150Z 22009KT 34/09 A2998 RMK A01 T03420093  RH  022%=      5-min Rain = 0
KEN1 032151Z 22008KT 34/09 A2998 RMK A01 T03410094  RH  022%=      5-min Rain = 0
KEN1 032152Z 25006KT 34/09 A2998 RMK A01 T03410092  RH  022%=      5-min Rain = 0
KEN1 032153Z 27004KT 34/09 A2998 RMK A01 T03380090  RH  022%=      5-min Rain = 0
KEN1 032154Z 23005KT 34/09 A2998 RMK A01 T03350091  RH  022%=      5-min Rain = 0
KEN1 032155Z 22005KT 34/09 A2998 RMK A01 T03350094  RH  023%=      5-min Rain = 0
KEN1 032156Z 22005KT 34/09 A2998 RMK A01 T03360093  RH  023%=      5-min Rain = 0
KEN1 032157Z 23004KT 34/09 A2998 RMK A01 T03350092  RH  023%=      5-min Rain = 0
KEN1 032158Z 22003KT 34/09 A2998 RMK A01 T03350093  RH  023%=      5-min Rain = 0
KEN1 032159Z 24005KT 34/09 A2998 RMK A01 T03350093  RH  023%=      5-min Rain = 0
KEN1 032200Z 23005KT 33/09 A2998 RMK A01 T03340093  RH  023%=      5-min Rain = 0
KEN1 032201Z 22007KT 33/09 A2997 RMK A01 T03340093  RH  023%=      5-min Rain = 0
KEN1 032202Z 20006KT 33/09 A2997 RMK A01 T03340093  RH  023%=      5-min Rain = 0
KEN1 032203Z 17003KT 33/09 A2998 RMK A01 T03330092  RH  023%=      5-min Rain = 0
KEN1 032204Z 18002KT 33/09 A2998 RMK A01 T03330092  RH  023%=      5-min Rain = 0
KEN1 032205Z 17002KT 33/09 A2997 RMK A01 T03320092  RH  023%=      5-min Rain = 0
KEN1 032206Z 19002KT 33/09 A2997 RMK A01 T03320092  RH  023%=      5-min Rain = 0
KEN1 032207Z 19002KT 33/09 A2997 RMK A01 T03320092  RH  023%=      5-min Rain = 0
KEN1 032208Z 24002KT 33/09 A2998 RMK A01 T03310093  RH  023%=      5-min Rain = 0
KEN1 032209Z 26004KT 33/09 A2997 RMK A01 T03310094  RH  023%=      5-min Rain = 0
KEN1 032210Z 23007KT 33/10 A2997 RMK A01 T03320095  RH  023%=      5-min Rain = 0
KEN1 032211Z 23007KT 33/09 A2997 RMK A01 T03330094  RH  023%=      5-min Rain = 0
KEN1 032212Z 23008KT 33/09 A2997 RMK A01 T03340092  RH  023%=      5-min Rain = 0
KEN1 032213Z 21008KT 33/09 A2997 RMK A01 T03330093  RH  023%=      5-min Rain = 0
KEN1 032214Z 21009KT 33/09 A2997 RMK A01 T03330093  RH  023%=      5-min Rain = 0
KEN1 032215Z 21008KT 33/09 A2997 RMK A01 T03320093  RH  023%=      5-min Rain = 0
KEN1 032216Z 21005KT 33/09 A2997 RMK A01 T03310093  RH  023%=      5-min Rain = 0
KEN1 032217Z 20004KT 33/09 A2997 RMK A01 T03310092  RH  023%=      5-min Rain = 0
KEN1 032218Z 19003KT 33/09 A2997 RMK A01 T03310092  RH  023%=      5-min Rain = 0
KEN1 032219Z 22005KT 33/09 A2997 RMK A01 T03310093  RH  023%=      5-min Rain = 0
KEN1 032220Z 21006KT 33/10 A2997 RMK A01 T03310099  RH  024%=      5-min Rain = 0
KEN1 032221Z 22006KT 33/11 A2997 RMK A01 T03310109  RH  026%=      5-min Rain = 0
KEN1 032222Z 23006KT 33/14 A2997 RMK A01 T03280139  RH  032%=      5-min Rain = 0
KEN1 032223Z 23009KT 32/14 A2997 RMK A01 T03210142  RH  034%=      5-min Rain = 0
KEN1 032224Z 22008KT 32/15 A2997 RMK A01 T03150153  RH  038%=      5-min Rain = 0
KEN1 032225Z 21006KT 31/16 A2997 RMK A01 T03080157  RH  040%=      5-min Rain = 0
KEN1 032226Z 17002KT 31/13 A2997 RMK A01 T03060127  RH  033%=      5-min Rain = 0
KEN1 032227Z 17001KT 31/15 A2997 RMK A01 T03060147  RH  038%=      5-min Rain = 0
KEN1 032228Z 15002KT 31/14 A2997 RMK A01 T03060142  RH  037%=      5-min Rain = 0
KEN1 032229Z 11001KT 31/14 A2997 RMK A01 T03060135  RH  035%=      5-min Rain = 0
KEN1 032230Z 10001KT 31/13 A2997 RMK A01 T03080130  RH  034%=      5-min Rain = 0
KEN1 032231Z 10001KT 31/15 A2997 RMK A01 T03100153  RH  039%=      5-min Rain = 0
KEN1 032232Z 12001KT 31/13 A2997 RMK A01 T03120127  RH  032%=      5-min Rain = 0
KEN1 032233Z 17002KT 32/13 A2997 RMK A01 T03150131  RH  033%=      5-min Rain = 0
KEN1 032234Z 22005KT 32/15 A2997 RMK A01 T03190154  RH  037%=      5-min Rain = 0
KEN1 032235Z 23006KT 32/14 A2997 RMK A01 T03230141  RH  033%=      5-min Rain = 0
KEN1 032236Z 22007KT 33/15 A2997 RMK A01 T03260147  RH  034%=      5-min Rain = 0
KEN1 032237Z 22005KT 33/15 A2997 RMK A01 T03280148  RH  034%=      5-min Rain = 0
KEN1 032238Z 23008KT 33/14 A2997 RMK A01 T03300143  RH  033%=      5-min Rain = 0
KEN1 032239Z 25008KT 33/14 A2997 RMK A01 T03310138  RH  031%=      5-min Rain = 0
KEN1 032240Z 27010KT 33/14 A2997 RMK A01 T03320139  RH  031%=      5-min Rain = 0
KEN1 032241Z 26012KT 33/13 A2997 RMK A01 T03280132  RH  030%=      5-min Rain = 0
KEN1 032242Z 26015G22KT 32/14 A2996 RMK A01 T03210137  RH  033%=      5-min Rain = 0.01
KEN1 032243Z 27018KT 32/13 A2997 RMK A01 T03190132  RH  032%=      5-min Rain = 0
KEN1 032244Z 26016KT 32/13 A2997 RMK A01 T03200129  RH  031%=      5-min Rain = 0
KEN1 032245Z 25015KT 32/13 A2996 RMK A01 T03210131  RH  032%=      5-min Rain = 0
KEN1 032246Z 25014KT 32/13 A2996 RMK A01 T03200131  RH  032%=      5-min Rain = 0
KEN1 032247Z 24021KT 32/13 A2996 RMK A01 T03210125  RH  030%=      5-min Rain = 0
KEN1 032248Z 24017KT 32/12 A2996 RMK A01 T03230115  RH  028%=      5-min Rain = 0
KEN1 032249Z 23014KT 32/11 A2996 RMK A01 T03240114  RH  028%=      5-min Rain = 0
KEN1 032250Z 23014KT 32/12 A2996 RMK A01 T03240119  RH  029%=      5-min Rain = 0
KEN1 032251Z 24015KT 33/12 A2996 RMK A01 T03250117  RH  028%=      5-min Rain = 0
KEN1 032252Z 23014KT 33/12 A2996 RMK A01 T03270120  RH  028%=      5-min Rain = 0
KEN1 032253Z 22013KT 33/12 A2996 RMK A01 T03290118  RH  028%=      5-min Rain = 0
KEN1 032254Z 22011KT 33/11 A2996 RMK A01 T03280111  RH  027%=      5-min Rain = 0
KEN1 032255Z 20009KT 33/11 A2996 RMK A01 T03280114  RH  027%=      5-min Rain = 0
KEN1 032256Z 20009KT 33/12 A2996 RMK A01 T03310120  RH  028%=      5-min Rain = 0
KEN1 032257Z 19009KT 33/11 A2996 RMK A01 T03330112  RH  026%=      5-min Rain = 0
KEN1 032258Z 19008KT 33/11 A2996 RMK A01 T03330109  RH  025%=      5-min Rain = 0
KEN1 032259Z 20010KT 33/12 A2995 RMK A01 T03340116  RH  026%=      5-min Rain = 0
KEN1 032300Z 20010KT 34/11 A2995 RMK A01 T03360112  RH  025%=      5-min Rain = 0
KEN1 032301Z 18012KT 34/11 A2995 RMK A01 T03360111  RH  025%=      5-min Rain = 0
KEN1 032302Z 19009KT 34/11 A2995 RMK A01 T03360108  RH  025%=      5-min Rain = 0
KEN1 032303Z 19007KT 34/11 A2995 RMK A01 T03360107  RH  025%=      5-min Rain = 0
KEN1 032304Z 20008KT 34/10 A2995 RMK A01 T03360103  RH  024%=      5-min Rain = 0
KEN1 032305Z 22006KT 34/10 A2995 RMK A01 T03370102  RH  024%=      5-min Rain = 0
KEN1 032306Z 22005KT 34/10 A2995 RMK A01 T03370103  RH  024%=      5-min Rain = 0
KEN1 032307Z 23005KT 34/10 A2995 RMK A01 T03370103  RH  024%=      5-min Rain = 0
KEN1 032308Z 22005KT 34/11 A2995 RMK A01 T03380108  RH  025%=      5-min Rain = 0
KEN1 032309Z 22006KT 34/11 A2995 RMK A01 T03380108  RH  025%=      5-min Rain = 0
KEN1 032310Z 21003KT 34/11 A2995 RMK A01 T03380106  RH  024%=      5-min Rain = 0
KEN1 032311Z 19004KT 34/11 A2995 RMK A01 T03380105  RH  024%=      5-min Rain = 0
KEN1 032312Z 19004KT 34/11 A2995 RMK A01 T03380106  RH  024%=      5-min Rain = 0
KEN1 032313Z 17002KT 34/11 A2995 RMK A01 T03380106  RH  024%=      5-min Rain = 0
KEN1 032314Z 17001KT 34/10 A2995 RMK A01 T03370104  RH  024%=      5-min Rain = 0
KEN1 032315Z 20002KT 34/11 A2995 RMK A01 T03390111  RH  025%=      5-min Rain = 0
KEN1 032316Z 17003KT 34/11 A2995 RMK A01 T03410110  RH  024%=      5-min Rain = 0
KEN1 032317Z 19007KT 34/11 A2995 RMK A01 T03420112  RH  025%=      5-min Rain = 0
KEN1 032318Z 17006KT 34/11 A2995 RMK A01 T03430112  RH  025%=      5-min Rain = 0
KEN1 032319Z 17005KT 34/12 A2995 RMK A01 T03430118  RH  026%=      5-min Rain = 0
KEN1 032320Z 19004KT 34/11 A2995 RMK A01 T03440110  RH  024%=      5-min Rain = 0
KEN1 032321Z 20006KT 34/11 A2995 RMK A01 T03400109  RH  024%=      5-min Rain = 0
KEN1 032322Z 21006KT 34/11 A2995 RMK A01 T03380111  RH  025%=      5-min Rain = 0
KEN1 032323Z 22006KT 34/11 A2995 RMK A01 T03360112  RH  026%=      5-min Rain = 0
KEN1 032324Z 23010KT 34/11 A2995 RMK A01 T03350109  RH  025%=      5-min Rain = 0
KEN1 032325Z 24012KT 33/10 A2995 RMK A01 T03340102  RH  024%=      5-min Rain = 0
KEN1 032326Z 24012KT 33/10 A2995 RMK A01 T03330103  RH  025%=      5-min Rain = 0
KEN1 032327Z 24012KT 33/10 A2995 RMK A01 T03330103  RH  024%=      5-min Rain = 0
KEN1 032328Z 23013KT 33/11 A2995 RMK A01 T03340105  RH  025%=      5-min Rain = 0
KEN1 032329Z 23013KT 33/11 A2994 RMK A01 T03330105  RH  025%=      5-min Rain = 0
KEN1 032330Z 23012KT 33/10 A2995 RMK A01 T03320103  RH  025%=      5-min Rain = 0
KEN1 032331Z 23012KT 33/10 A2994 RMK A01 T03310104  RH  025%=      5-min Rain = 0
KEN1 032332Z 24014KT 33/10 A2994 RMK A01 T03300102  RH  025%=      5-min Rain = 0
KEN1 032333Z 22010KT 33/10 A2994 RMK A01 T03300102  RH  025%=      5-min Rain = 0
KEN1 032334Z 21009KT 33/10 A2994 RMK A01 T03300103  RH  025%=      5-min Rain = 0
KEN1 032335Z 22012G17KT 33/10 A2994 RMK A01 T03300101  RH  024%=      5-min Rain = 0
KEN1 032336Z 23012KT 33/10 A2994 RMK A01 T03300100  RH  024%=      5-min Rain = 0
KEN1 032337Z 22010KT 33/10 A2994 RMK A01 T03310098  RH  024%=      5-min Rain = 0
KEN1 032338Z 21011KT 33/10 A2994 RMK A01 T03320102  RH  024%=      5-min Rain = 0
KEN1 032339Z 21013KT 33/10 A2994 RMK A01 T03320102  RH  024%=      5-min Rain = 0
KEN1 032340Z 21012KT 33/10 A2994 RMK A01 T03330102  RH  024%=      5-min Rain = 0
KEN1 032341Z 20011KT 33/10 A2994 RMK A01 T03330100  RH  024%=      5-min Rain = 0
KEN1 032342Z 22013KT 33/10 A2994 RMK A01 T03320102  RH  024%=      5-min Rain = 0
KEN1 032343Z 22012KT 33/10 A2994 RMK A01 T03320099  RH  024%=      5-min Rain = 0
KEN1 032344Z 23010KT 33/10 A2994 RMK A01 T03310100  RH  024%=      5-min Rain = 0
KEN1 032345Z 23011KT 33/10 A2994 RMK A01 T03310099  RH  024%=      5-min Rain = 0
KEN1 032346Z 23011KT 33/10 A2994 RMK A01 T03310097  RH  024%=      5-min Rain = 0
KEN1 032347Z 22011KT 33/10 A2994 RMK A01 T03310100  RH  024%=      5-min Rain = 0
KEN1 032348Z 22011KT 33/10 A2994 RMK A01 T03310102  RH  025%=      5-min Rain = 0
KEN1 032349Z 20011KT 33/11 A2994 RMK A01 T03310106  RH  025%=      5-min Rain = 0
KEN1 032350Z 18012KT 33/10 A2994 RMK A01 T03310104  RH  025%=      5-min Rain = 0
KEN1 032351Z 20011KT 33/11 A2994 RMK A01 T03310106  RH  025%=      5-min Rain = 0
KEN1 032352Z 19012KT 33/10 A2994 RMK A01 T03310104  RH  025%=      5-min Rain = 0
KEN1 032353Z 20011KT 33/11 A2994 RMK A01 T03320105  RH  025%=      5-min Rain = 0
KEN1 032354Z 21010KT 33/11 A2994 RMK A01 T03330107  RH  025%=      5-min Rain = 0
KEN1 032355Z 21009KT 33/11 A2994 RMK A01 T03340108  RH  025%=      5-min Rain = 0
KEN1 032356Z 21011KT 33/11 A2994 RMK A01 T03340106  RH  025%=      5-min Rain = 0
KEN1 032357Z 21010KT 33/11 A2994 RMK A01 T03320105  RH  025%=      5-min Rain = 0
KEN1 032358Z 21008KT 33/11 A2994 RMK A01 T03310105  RH  025%=      5-min Rain = 0
KEN1 032359Z 21010KT 33/10 A2994 RMK A01 T03300103  RH  025%=      5-min Rain = 0
KEN1 040000Z 20010KT 33/10 A2994 RMK A01 T03290099  RH  024%=      5-min Rain = 0
KEN1 040001Z 19009KT 33/10 A2994 RMK A01 T03280102  RH  025%=      5-min Rain = 0
KEN1 040002Z 19011KT 33/11 A2994 RMK A01 T03280106  RH  026%=      5-min Rain = 0
KEN1 040003Z 18011KT 33/11 A2994 RMK A01 T03260107  RH  026%=      5-min Rain = 0
KEN1 040004Z 18012KT 33/10 A2994 RMK A01 T03250104  RH  026%=      5-min Rain = 0
KEN1 040005Z 18014KT 32/10 A2994 RMK A01 T03240103  RH  026%=      5-min Rain = 0
KEN1 040006Z 17011KT 32/10 A2994 RMK A01 T03230101  RH  026%=      5-min Rain = 0
KEN1 040007Z 18011KT 32/10 A2994 RMK A01 T03230102  RH  026%=      5-min Rain = 0
KEN1 040008Z 18011KT 32/10 A2994 RMK A01 T03230103  RH  026%=      5-min Rain = 0
KEN1 040009Z 18009KT 32/10 A2994 RMK A01 T03220102  RH  026%=      5-min Rain = 0
KEN1 040010Z 17008KT 32/10 A2994 RMK A01 T03220102  RH  026%=      5-min Rain = 0
KEN1 040011Z 17007KT 32/10 A2994 RMK A01 T03220103  RH  026%=      5-min Rain = 0
KEN1 040012Z 18006KT 32/11 A2994 RMK A01 T03220107  RH  027%=      5-min Rain = 0
KEN1 040013Z 18009KT 32/10 A2994 RMK A01 T03220104  RH  026%=      5-min Rain = 0
KEN1 040014Z 18009KT 32/10 A2994 RMK A01 T03220103  RH  026%=      5-min Rain = 0
KEN1 040015Z 18009KT 32/10 A2994 RMK A01 T03220103  RH  026%=      5-min Rain = 0
KEN1 040016Z 18008KT 32/10 A2994 RMK A01 T03220104  RH  026%=      5-min Rain = 0
KEN1 040017Z 17008KT 32/10 A2994 RMK A01 T03220104  RH  026%=      5-min Rain = 0
KEN1 040018Z 17008KT 32/10 A2994 RMK A01 T03230103  RH  026%=      5-min Rain = 0
KEN1 040019Z 18007KT 32/10 A2994 RMK A01 T03230103  RH  026%=      5-min Rain = 0
KEN1 040020Z 18005KT 32/11 A2994 RMK A01 T03240105  RH  026%=      5-min Rain = 0
KEN1 040021Z 17006KT 32/11 A2994 RMK A01 T03240106  RH  026%=      5-min Rain = 0
KEN1 040022Z 17007KT 33/11 A2994 RMK A01 T03250107  RH  026%=      5-min Rain = 0
KEN1 040023Z 17009KT 33/11 A2994 RMK A01 T03260107  RH  026%=      5-min Rain = 0
KEN1 040024Z 18010KT 33/10 A2994 RMK A01 T03270103  RH  025%=      5-min Rain = 0
KEN1 040025Z 18008KT 33/10 A2994 RMK A01 T03270103  RH  025%=      5-min Rain = 0
KEN1 040026Z 17008KT 33/10 A2994 RMK A01 T03280104  RH  025%=      5-min Rain = 0
KEN1 040027Z 18007KT 33/10 A2994 RMK A01 T03290103  RH  025%=      5-min Rain = 0
KEN1 040028Z 18007KT 33/10 A2994 RMK A01 T03290103  RH  025%=      5-min Rain = 0
KEN1 040029Z 17007KT 33/11 A2994 RMK A01 T03290105  RH  025%=      5-min Rain = 0
KEN1 040030Z 17008KT 33/10 A2994 RMK A01 T03290104  RH  025%=      5-min Rain = 0
KEN1 040031Z 17009KT 33/10 A2995 RMK A01 T03290102  RH  025%=      5-min Rain = 0
KEN1 040032Z 16008KT 33/10 A2995 RMK A01 T03290100  RH  025%=      5-min Rain = 0
KEN1 040033Z 16007KT 33/10 A2995 RMK A01 T03290100  RH  024%=      5-min Rain = 0
KEN1 040034Z 17006KT 33/10 A2995 RMK A01 T03300100  RH  024%=      5-min Rain = 0
KEN1 040035Z 16006KT 33/10 A2995 RMK A01 T03310104  RH  025%=      5-min Rain = 0
KEN1 040036Z 17006KT 33/10 A2994 RMK A01 T03320103  RH  025%=      5-min Rain = 0
KEN1 040037Z 17006KT 33/10 A2994 RMK A01 T03320103  RH  025%=      5-min Rain = 0
KEN1 040038Z 17005KT 33/10 A2995 RMK A01 T03320104  RH  025%=      5-min Rain = 0
KEN1 040039Z 17008KT 33/10 A2995 RMK A01 T03320104  RH  025%=      5-min Rain = 0
KEN1 040040Z 18008KT 33/10 A2995 RMK A01 T03320103  RH  025%=      5-min Rain = 0
KEN1 040041Z 17008KT 33/10 A2995 RMK A01 T03320104  RH  025%=      5-min Rain = 0
KEN1 040042Z 17007KT 33/11 A2995 RMK A01 T03310106  RH  025%=      5-min Rain = 0
KEN1 040043Z 17006KT 33/11 A2995 RMK A01 T03320106  RH  025%=      5-min Rain = 0
KEN1 040044Z 16006KT 33/11 A2995 RMK A01 T03320108  RH  025%=      5-min Rain = 0
KEN1 040045Z 16007KT 33/11 A2995 RMK A01 T03310107  RH  025%=      5-min Rain = 0
KEN1 040046Z 17008KT 33/11 A2995 RMK A01 T03300106  RH  025%=      5-min Rain = 0
KEN1 040047Z 17008KT 33/11 A2995 RMK A01 T03300107  RH  025%=      5-min Rain = 0
KEN1 040048Z 17008KT 33/11 A2995 RMK A01 T03290105  RH  025%=      5-min Rain = 0
KEN1 040049Z 17007KT 33/11 A2995 RMK A01 T03290105  RH  025%=      5-min Rain = 0
KEN1 040050Z 16007KT 33/11 A2995 RMK A01 T03290105  RH  025%=      5-min Rain = 0
KEN1 040051Z 16007KT 33/11 A2995 RMK A01 T03290105  RH  025%=      5-min Rain = 0
KEN1 040052Z 17006KT 33/11 A2995 RMK A01 T03290106  RH  026%=      5-min Rain = 0
KEN1 040053Z 17006KT 33/10 A2995 RMK A01 T03290104  RH  025%=      5-min Rain = 0
KEN1 040054Z 16006KT 33/11 A2995 RMK A01 T03290105  RH  025%=      5-min Rain = 0
KEN1 040055Z 17007KT 33/11 A2995 RMK A01 T03290105  RH  025%=      5-min Rain = 0
KEN1 040056Z 17007KT 33/11 A2995 RMK A01 T03300105  RH  025%=      5-min Rain = 0
KEN1 040057Z 17007KT 33/10 A2995 RMK A01 T03300103  RH  025%=      5-min Rain = 0
KEN1 040058Z 18005KT 33/10 A2995 RMK A01 T03290104  RH  025%=      5-min Rain = 0
KEN1 040059Z 17006KT 33/11 A2995 RMK A01 T03290105  RH  025%=      5-min Rain = 0
KEN1 040100Z 17007KT 33/11 A2995 RMK A01 T03300107  RH  026%=      5-min Rain = 0
KEN1 040101Z 18007KT 33/11 A2995 RMK A01 T03290108  RH  026%=      5-min Rain = 0
KEN1 040102Z 18007KT 33/11 A2995 RMK A01 T03290109  RH  026%=      5-min Rain = 0
KEN1 040103Z 18009KT 33/11 A2995 RMK A01 T03290108  RH  026%=      5-min Rain = 0
KEN1 040104Z 18009KT 33/11 A2995 RMK A01 T03280107  RH  026%=      5-min Rain = 0
KEN1 040105Z 18010KT 33/11 A2995 RMK A01 T03270106  RH  026%=      5-min Rain = 0
KEN1 040106Z 18009KT 33/11 A2995 RMK A01 T03270105  RH  026%=      5-min Rain = 0
KEN1 040107Z 18008KT 33/10 A2995 RMK A01 T03260104  RH  026%=      5-min Rain = 0
KEN1 040108Z 17007KT 33/11 A2995 RMK A01 T03260105  RH  026%=      5-min Rain = 0
KEN1 040109Z 18007KT 33/11 A2995 RMK A01 T03260105  RH  026%=      5-min Rain = 0
KEN1 040110Z 17007KT 33/11 A2995 RMK A01 T03260106  RH  026%=      5-min Rain = 0
KEN1 040111Z 17006KT 33/11 A2995 RMK A01 T03260106  RH  026%=      5-min Rain = 0
KEN1 040112Z 17006KT 33/11 A2995 RMK A01 T03260107  RH  026%=      5-min Rain = 0
KEN1 040113Z 16007KT 33/11 A2995 RMK A01 T03250107  RH  026%=      5-min Rain = 0
KEN1 040114Z 17007KT 33/11 A2995 RMK A01 T03250106  RH  026%=      5-min Rain = 0
KEN1 040115Z 18007KT 33/11 A2995 RMK A01 T03260107  RH  026%=      5-min Rain = 0
KEN1 040116Z 17007KT 33/11 A2995 RMK A01 T03250105  RH  026%=      5-min Rain = 0
KEN1 040117Z 17007KT 32/11 A2995 RMK A01 T03240105  RH  026%=      5-min Rain = 0
KEN1 040118Z 17007KT 32/11 A2995 RMK A01 T03240105  RH  026%=      5-min Rain = 0
KEN1 040119Z 17007KT 32/10 A2995 RMK A01 T03240104  RH  026%=      5-min Rain = 0
KEN1 040120Z 17007KT 32/11 A2995 RMK A01 T03240105  RH  026%=      5-min Rain = 0
KEN1 040121Z 18007KT 32/11 A2995 RMK A01 T03230105  RH  026%=      5-min Rain = 0
KEN1 040122Z 18007KT 32/11 A2995 RMK A01 T03230105  RH  026%=      5-min Rain = 0
KEN1 040123Z 18006KT 32/11 A2995 RMK A01 T03220105  RH  026%=      5-min Rain = 0
KEN1 040124Z 17006KT 32/11 A2995 RMK A01 T03210106  RH  027%=      5-min Rain = 0
KEN1 040125Z 17006KT 32/11 A2995 RMK A01 T03210105  RH  027%=      5-min Rain = 0
KEN1 040126Z 17007KT 32/11 A2995 RMK A01 T03200105  RH  027%=      5-min Rain = 0
KEN1 040127Z 18006KT 32/11 A2995 RMK A01 T03200105  RH  027%=      5-min Rain = 0
KEN1 040128Z 18006KT 32/11 A2995 RMK A01 T03190105  RH  027%=      5-min Rain = 0
KEN1 040129Z 18005KT 32/10 A2995 RMK A01 T03180104  RH  027%=      5-min Rain = 0
KEN1 040130Z 18005KT 32/11 A2995 RMK A01 T03170105  RH  027%=      5-min Rain = 0
KEN1 040131Z 18005KT 32/11 A2995 RMK A01 T03150105  RH  027%=      5-min Rain = 0
KEN1 040132Z 18005KT 31/11 A2995 RMK A01 T03140105  RH  028%=      5-min Rain = 0
KEN1 040133Z 18005KT 31/11 A2995 RMK A01 T03130105  RH  028%=      5-min Rain = 0
KEN1 040134Z 18004KT 31/11 A2995 RMK A01 T03110105  RH  028%=      5-min Rain = 0
KEN1 040135Z 18004KT 31/11 A2995 RMK A01 T03100105  RH  028%=      5-min Rain = 0
KEN1 040136Z 18004KT 31/11 A2995 RMK A01 T03090105  RH  028%=      5-min Rain = 0
KEN1 040137Z 18005KT 31/11 A2995 RMK A01 T03070105  RH  029%=      5-min Rain = 0
KEN1 040138Z 18005KT 31/11 A2995 RMK A01 T03060105  RH  029%=      5-min Rain = 0
KEN1 040139Z 18005KT 31/11 A2995 RMK A01 T03050105  RH  029%=      5-min Rain = 0
KEN1 040140Z 18005KT 30/11 A2995 RMK A01 T03040105  RH  029%=      5-min Rain = 0
KEN1 040141Z 17005KT 30/11 A2995 RMK A01 T03040105  RH  029%=      5-min Rain = 0
KEN1 040142Z 17004KT 30/11 A2995 RMK A01 T03040105  RH  029%=      5-min Rain = 0
KEN1 040143Z 17004KT 30/10 A2995 RMK A01 T03030104  RH  029%=      5-min Rain = 0
KEN1 040144Z 17004KT 30/10 A2996 RMK A01 T03030104  RH  029%=      5-min Rain = 0
KEN1 040145Z 16004KT 30/10 A2996 RMK A01 T03030104  RH  029%=      5-min Rain = 0
KEN1 040146Z 16004KT 30/10 A2996 RMK A01 T03020104  RH  029%=      5-min Rain = 0
KEN1 040147Z 16003KT 30/10 A2996 RMK A01 T03020103  RH  029%=      5-min Rain = 0
KEN1 040148Z 15003KT 30/10 A2996 RMK A01 T03020103  RH  029%=      5-min Rain = 0
KEN1 040149Z 15003KT 30/10 A2996 RMK A01 T03010103  RH  029%=      5-min Rain = 0
KEN1 040150Z 14002KT 30/10 A2996 RMK A01 T03000103  RH  029%=      5-min Rain = 0
KEN1 040151Z 11002KT 30/10 A2996 RMK A01 T02990102  RH  030%=      5-min Rain = 0
KEN1 040152Z 07002KT 30/10 A2996 RMK A01 T02990104  RH  030%=      5-min Rain = 0
KEN1 040153Z 04004KT 29/11 A2996 RMK A01 T02940107  RH  031%=      5-min Rain = 0
KEN1 040154Z 03010G17KT 29/11 A2997 RMK A01 T02850109  RH  033%=      5-min Rain = 0
KEN1 040155Z 03016KT 28/11 A2997 RMK A01 T02790107  RH  034%=      5-min Rain = 0
KEN1 040156Z 03017KT 28/10 A2997 RMK A01 T02780102  RH  033%=      5-min Rain = 0
KEN1 040157Z 03014KT 28/10 A2997 RMK A01 T02790101  RH  033%=      5-min Rain = 0
KEN1 040158Z 02014KT 28/10 A2997 RMK A01 T02790100  RH  033%=      5-min Rain = 0
KEN1 040159Z 03015KT 28/10 A2997 RMK A01 T02790100  RH  033%=      5-min Rain = 0
KEN1 040200Z 03015KT 28/10 A2997 RMK A01 T02790100  RH  033%=      5-min Rain = 0
KEN1 040201Z 04014KT 28/10 A2997 RMK A01 T02790099  RH  032%=      5-min Rain = 0
KEN1 040202Z 04010KT 28/10 A2997 RMK A01 T02800099  RH  032%=      5-min Rain = 0
KEN1 040203Z 05009KT 28/10 A2997 RMK A01 T02800099  RH  032%=      5-min Rain = 0
KEN1 040204Z 05007KT 28/10 A2997 RMK A01 T02790100  RH  033%=      5-min Rain = 0
KEN1 040205Z 06008KT 28/10 A2997 RMK A01 T02780099  RH  033%=      5-min Rain = 0
KEN1 040206Z 06005KT 28/10 A2997 RMK A01 T02780100  RH  033%=      5-min Rain = 0
KEN1 040207Z 10004KT 28/10 A2997 RMK A01 T02770099  RH  033%=      5-min Rain = 0
KEN1 040208Z 11005KT 28/10 A2997 RMK A01 T02760099  RH  033%=      5-min Rain = 0
KEN1 040209Z 11005KT 28/10 A2997 RMK A01 T02750099  RH  033%=      5-min Rain = 0
KEN1 040210Z 12005KT 27/10 A2997 RMK A01 T02740099  RH  033%=      5-min Rain = 0
KEN1 040211Z 12005KT 28/10 A2997 RMK A01 T02750098  RH  033%=      5-min Rain = 0
KEN1 040212Z 14004KT 28/10 A2997 RMK A01 T02770098  RH  033%=      5-min Rain = 0
KEN1 040213Z 15003KT 28/10 A2997 RMK A01 T02770098  RH  033%=      5-min Rain = 0
KEN1 040214Z 15001KT 28/10 A2997 RMK A01 T02780099  RH  033%=      5-min Rain = 0
KEN1 040215Z 20002KT 28/10 A2997 RMK A01 T02770099  RH  033%=      5-min Rain = 0
KEN1 040216Z 19002KT 28/10 A2997 RMK A01 T02750100  RH  033%=      5-min Rain = 0
KEN1 040217Z 16002KT 27/10 A2997 RMK A01 T02740099  RH  033%=      5-min Rain = 0
KEN1 040218Z 18001KT 27/10 A2997 RMK A01 T02730099  RH  034%=      5-min Rain = 0
KEN1 040219Z 17001KT 27/10 A2997 RMK A01 T02720099  RH  034%=      5-min Rain = 0
KEN1 040220Z 13001KT 27/10 A2997 RMK A01 T02720098  RH  033%=      5-min Rain = 0
KEN1 040221Z 05003KT 27/10 A2997 RMK A01 T02730098  RH  033%=      5-min Rain = 0
KEN1 040222Z 01003KT 27/10 A2998 RMK A01 T02730099  RH  033%=      5-min Rain = 0
KEN1 040223Z 01006KT 27/10 A2998 RMK A01 T02730101  RH  034%=      5-min Rain = 0
KEN1 040224Z 02005KT 27/10 A2998 RMK A01 T02720102  RH  034%=      5-min Rain = 0
KEN1 040225Z 03009KT 27/10 A2998 RMK A01 T02700102  RH  035%=      5-min Rain = 0
KEN1 040226Z 03012KT 27/10 A2998 RMK A01 T02690103  RH  035%=      5-min Rain = 0
KEN1 040227Z 03010KT 27/10 A2998 RMK A01 T02680103  RH  036%=      5-min Rain = 0
KEN1 040228Z 04009KT 27/10 A2998 RMK A01 T02670104  RH  036%=      5-min Rain = 0
KEN1 040229Z 04009KT 27/10 A2998 RMK A01 T02660104  RH  036%=      5-min Rain = 0
KEN1 040230Z 04009KT 27/10 A2998 RMK A01 T02650104  RH  036%=      5-min Rain = 0
KEN1 040231Z 04008KT 26/10 A2998 RMK A01 T02640104  RH  036%=      5-min Rain = 0
KEN1 040232Z 04010KT 26/10 A2998 RMK A01 T02630103  RH  037%=      5-min Rain = 0
KEN1 040233Z 05011KT 26/10 A2998 RMK A01 T02630103  RH  037%=      5-min Rain = 0
KEN1 040234Z 05011KT 26/10 A2998 RMK A01 T02640103  RH  036%=      5-min Rain = 0
KEN1 040235Z 05012KT 26/10 A2998 RMK A01 T02630102  RH  036%=      5-min Rain = 0
KEN1 040236Z 06011KT 26/10 A2998 RMK A01 T02640102  RH  036%=      5-min Rain = 0
KEN1 040237Z 06010KT 27/10 A2998 RMK A01 T02650101  RH  036%=      5-min Rain = 0
KEN1 040238Z 06012KT 27/10 A2998 RMK A01 T02650101  RH  036%=      5-min Rain = 0
KEN1 040239Z 06015KT 26/10 A2998 RMK A01 T02640101  RH  036%=      5-min Rain = 0
KEN1 040240Z 06013KT 26/10 A2998 RMK A01 T02640100  RH  036%=      5-min Rain = 0
KEN1 040241Z 06011KT 27/10 A2998 RMK A01 T02650100  RH  036%=      5-min Rain = 0
KEN1 040242Z 06013G18KT 26/10 A2998 RMK A01 T02640101  RH  036%=      5-min Rain = 0
KEN1 040243Z 06015KT 26/10 A2998 RMK A01 T02630101  RH  036%=      5-min Rain = 0
KEN1 040244Z 06015KT 26/10 A2998 RMK A01 T02630101  RH  036%=      5-min Rain = 0
KEN1 040245Z 06014KT 26/10 A2998 RMK A01 T02630103  RH  036%=      5-min Rain = 0
KEN1 040246Z 06015KT 26/10 A2998 RMK A01 T02630104  RH  037%=      5-min Rain = 0
KEN1 040247Z 06014KT 26/11 A2998 RMK A01 T02620105  RH  037%=      5-min Rain = 0
KEN1 040248Z 06013KT 26/11 A2998 RMK A01 T02610105  RH  038%=      5-min Rain = 0
KEN1 040249Z 06011KT 26/11 A2998 RMK A01 T02600105  RH  038%=      5-min Rain = 0
KEN1 040250Z 06013KT 26/11 A2998 RMK A01 T02580105  RH  038%=      5-min Rain = 0
KEN1 040251Z 06012KT 26/11 A2998 RMK A01 T02570106  RH  038%=      5-min Rain = 0
KEN1 040252Z 06012KT 26/11 A2998 RMK A01 T02560106  RH  039%=      5-min Rain = 0
KEN1 040253Z 06013KT 26/11 A2998 RMK A01 T02560107  RH  039%=      5-min Rain = 0
KEN1 040254Z 07012G17KT 26/11 A2998 RMK A01 T02550107  RH  039%=      5-min Rain = 0
KEN1 040255Z 06013KT 25/11 A2998 RMK A01 T02540108  RH  040%=      5-min Rain = 0
KEN1 040256Z 06012KT 25/11 A2999 RMK A01 T02530109  RH  040%=      5-min Rain = 0
KEN1 040257Z 06014KT 25/11 A2999 RMK A01 T02530109  RH  041%=      5-min Rain = 0
KEN1 040258Z 06011KT 25/11 A2999 RMK A01 T02520110  RH  041%=      5-min Rain = 0
KEN1 040259Z 06013KT 25/11 A2998 RMK A01 T02520111  RH  041%=      5-min Rain = 0
KEN1 040300Z 06013KT 25/11 A2999 RMK A01 T02510111  RH  041%=      5-min Rain = 0
KEN1 040301Z 06012KT 25/11 A2999 RMK A01 T02500112  RH  042%=      5-min Rain = 0
KEN1 040302Z 06012KT 25/11 A2999 RMK A01 T02490112  RH  042%=      5-min Rain = 0
KEN1 040303Z 06011KT 25/11 A2999 RMK A01 T02480112  RH  042%=      5-min Rain = 0
KEN1 040304Z 07014KT 25/11 A2999 RMK A01 T02470112  RH  043%=      5-min Rain = 0
KEN1 040305Z 07013KT 25/11 A2999 RMK A01 T02470112  RH  043%=      5-min Rain = 0
KEN1 040306Z 07013KT 25/11 A2999 RMK A01 T02470112  RH  043%=      5-min Rain = 0
KEN1 040307Z 07012KT 25/11 A2999 RMK A01 T02460112  RH  043%=      5-min Rain = 0
KEN1 040308Z 07012KT 25/11 A2999 RMK A01 T02460112  RH  043%=      5-min Rain = 0
KEN1 040309Z 07012KT 25/11 A2999 RMK A01 T02450113  RH  043%=      5-min Rain = 0
KEN1 040310Z 07013KT 25/11 A2999 RMK A01 T02450112  RH  043%=      5-min Rain = 0
KEN1 040311Z 07013KT 25/11 A2999 RMK A01 T02450112  RH  043%=      5-min Rain = 0
KEN1 040312Z 07012KT 25/11 A2999 RMK A01 T02450112  RH  043%=      5-min Rain = 0
KEN1 040313Z 07011KT 25/11 A2999 RMK A01 T02450112  RH  043%=      5-min Rain = 0
KEN1 040314Z 07011KT 24/11 A2999 RMK A01 T02440112  RH  043%=      5-min Rain = 0
KEN1 040315Z 07012KT 24/11 A2999 RMK A01 T02440111  RH  043%=      5-min Rain = 0
KEN1 040316Z 07011KT 24/11 A2999 RMK A01 T02440111  RH  043%=      5-min Rain = 0
KEN1 040317Z 07011KT 24/11 A2999 RMK A01 T02440111  RH  043%=      5-min Rain = 0
KEN1 040318Z 07010KT 24/11 A2999 RMK A01 T02430111  RH  043%=      5-min Rain = 0
KEN1 040319Z 08009KT 24/11 A2999 RMK A01 T02430111  RH  043%=      5-min Rain = 0
KEN1 040320Z 08009KT 24/11 A30 RMK A01 T02410111  RH  044%=      5-min Rain = 0
KEN1 040321Z 09010KT 24/11 A30 RMK A01 T02400111  RH  044%=      5-min Rain = 0
KEN1 040322Z 09011KT 24/11 A30 RMK A01 T02400111  RH  044%=      5-min Rain = 0
KEN1 040323Z 08010KT 24/11 A2999 RMK A01 T02400111  RH  044%=      5-min Rain = 0
KEN1 040324Z 09010KT 24/11 A2999 RMK A01 T02400111  RH  044%=      5-min Rain = 0
KEN1 040325Z 08010KT 24/11 A2999 RMK A01 T02390111  RH  044%=      5-min Rain = 0
KEN1 040326Z 08010KT 24/11 A2999 RMK A01 T02390111  RH  045%=      5-min Rain = 0
KEN1 040327Z 08011KT 24/11 A2999 RMK A01 T02390111  RH  045%=      5-min Rain = 0
KEN1 040328Z 08011KT 24/11 A2999 RMK A01 T02390111  RH  044%=      5-min Rain = 0
KEN1 040329Z 08010KT 24/11 A2999 RMK A01 T02400111  RH  044%=      5-min Rain = 0
KEN1 040330Z 08011KT 24/11 A2999 RMK A01 T02400111  RH  044%=      5-min Rain = 0
KEN1 040331Z 07010KT 24/11 A30 RMK A01 T02390111  RH  045%=      5-min Rain = 0
KEN1 040332Z 07010KT 24/11 A30 RMK A01 T02380111  RH  045%=      5-min Rain = 0
KEN1 040333Z 07009KT 24/11 A30 RMK A01 T02380111  RH  045%=      5-min Rain = 0
KEN1 040334Z 07008KT 24/11 A30 RMK A01 T02370111  RH  045%=      5-min Rain = 0
KEN1 040335Z 09007KT 24/11 A30 RMK A01 T02360111  RH  045%=      5-min Rain = 0
KEN1 040336Z 10007KT 23/11 A30 RMK A01 T02340111  RH  046%=      5-min Rain = 0
KEN1 040337Z 10007KT 23/11 A30 RMK A01 T02330111  RH  046%=      5-min Rain = 0
KEN1 040338Z 09006KT 23/11 A30 RMK A01 T02320110  RH  046%=      5-min Rain = 0
KEN1 040339Z 08006KT 23/11 A30 RMK A01 T02320110  RH  046%=      5-min Rain = 0
KEN1 040340Z 07007KT 23/11 A30 RMK A01 T02310110  RH  046%=      5-min Rain = 0
KEN1 040341Z 06007KT 23/11 A30 RMK A01 T02290110  RH  047%=      5-min Rain = 0
KEN1 040342Z 07007KT 23/11 A30 RMK A01 T02270110  RH  047%=      5-min Rain = 0
KEN1 040343Z 08007KT 23/11 A30 RMK A01 T02260110  RH  048%=      5-min Rain = 0
KEN1 040344Z 08006KT 23/11 A30 RMK A01 T02260110  RH  048%=      5-min Rain = 0
KEN1 040345Z 10005KT 23/11 A30 RMK A01 T02250110  RH  048%=      5-min Rain = 0
KEN1 040346Z 12005KT 23/11 A30 RMK A01 T02250110  RH  048%=      5-min Rain = 0
KEN1 040347Z 12005KT 23/11 A30 RMK A01 T02250109  RH  048%=      5-min Rain = 0
KEN1 040348Z 12007KT 23/11 A30 RMK A01 T02250108  RH  048%=      5-min Rain = 0
KEN1 040349Z 11007KT 23/11 A3001 RMK A01 T02270108  RH  047%=      5-min Rain = 0
KEN1 040350Z 11007KT 23/11 A3001 RMK A01 T02280108  RH  047%=      5-min Rain = 0
KEN1 040351Z 11008KT 23/11 A3001 RMK A01 T02300109  RH  046%=      5-min Rain = 0
KEN1 040352Z 11007KT 23/11 A3001 RMK A01 T02320110  RH  046%=      5-min Rain = 0
KEN1 040353Z 12006KT 23/11 A3001 RMK A01 T02330110  RH  046%=      5-min Rain = 0
KEN1 040354Z 16006KT 23/11 A3001 RMK A01 T02340109  RH  045%=      5-min Rain = 0
KEN1 040355Z 17006KT 23/11 A3001 RMK A01 T02320108  RH  046%=      5-min Rain = 0
KEN1 040356Z 17006KT 23/11 A3001 RMK A01 T02290108  RH  046%=      5-min Rain = 0
KEN1 040357Z 16006KT 23/11 A3001 RMK A01 T02290108  RH  046%=      5-min Rain = 0
KEN1 040358Z 14006KT 23/11 A3001 RMK A01 T02290108  RH  047%=      5-min Rain = 0
KEN1 040359Z 14006KT 23/11 A3001 RMK A01 T02290108  RH  046%=      5-min Rain = 0
KEN1 040400Z 13005KT 23/11 A3001 RMK A01 T02300109  RH  046%=      5-min Rain = 0
KEN1 040401Z 12005KT 23/11 A3001 RMK A01 T02310109  RH  046%=      5-min Rain = 0
KEN1 040402Z 11004KT 23/11 A3001 RMK A01 T02310109  RH  046%=      5-min Rain = 0
KEN1 040403Z 10003KT 23/11 A3001 RMK A01 T02310110  RH  046%=      5-min Rain = 0
KEN1 040404Z 34002KT 23/11 A3001 RMK A01 T02310110  RH  046%=      5-min Rain = 0
KEN1 040405Z 33004KT 23/11 A3001 RMK A01 T02290109  RH  047%=      5-min Rain = 0
KEN1 040406Z 34004KT 23/11 A3001 RMK A01 T02260108  RH  047%=      5-min Rain = 0
KEN1 040407Z 35003KT 22/11 A3001 RMK A01 T02240108  RH  048%=      5-min Rain = 0
KEN1 040408Z 00002KT 22/11 A3001 RMK A01 T02240109  RH  048%=      5-min Rain = 0
KEN1 040409Z 34003KT 22/11 A3001 RMK A01 T02230108  RH  048%=      5-min Rain = 0
KEN1 040410Z 35003KT 22/11 A3002 RMK A01 T02240109  RH  048%=      5-min Rain = 0
KEN1 040411Z 35002KT 23/11 A3002 RMK A01 T02250109  RH  048%=      5-min Rain = 0
KEN1 040412Z 02002KT 23/11 A3002 RMK A01 T02250110  RH  048%=      5-min Rain = 0
KEN1 040413Z 04002KT 23/11 A3002 RMK A01 T02270111  RH  048%=      5-min Rain = 0
KEN1 040414Z 03001KT 23/11 A3001 RMK A01 T02300111  RH  047%=      5-min Rain = 0
KEN1 040415Z 07003KT 23/11 A3001 RMK A01 T02310111  RH  047%=      5-min Rain = 0
KEN1 040416Z 08004KT 23/11 A3001 RMK A01 T02320111  RH  046%=      5-min Rain = 0
KEN1 040417Z 09004KT 23/11 A3001 RMK A01 T02330112  RH  046%=      5-min Rain = 0
KEN1 040418Z 10004KT 23/11 A3001 RMK A01 T02330111  RH  046%=      5-min Rain = 0
KEN1 040419Z 11005KT 23/11 A3001 RMK A01 T02330112  RH  046%=      5-min Rain = 0
KEN1 040420Z 11006KT 23/11 A3001 RMK A01 T02330111  RH  046%=      5-min Rain = 0
KEN1 040421Z 11009KT 23/11 A3001 RMK A01 T02330111  RH  046%=      5-min Rain = 0
KEN1 040422Z 11007KT 23/11 A3001 RMK A01 T02340111  RH  046%=      5-min Rain = 0
KEN1 040423Z 11009KT 24/11 A3001 RMK A01 T02350112  RH  046%=      5-min Rain = 0
KEN1 040424Z 11009KT 24/11 A3001 RMK A01 T02360112  RH  046%=      5-min Rain = 0
KEN1 040425Z 11008KT 24/11 A3001 RMK A01 T02360112  RH  046%=      5-min Rain = 0
KEN1 040426Z 11009KT 24/11 A3001 RMK A01 T02350112  RH  046%=      5-min Rain = 0
KEN1 040427Z 11009KT 24/11 A3001 RMK A01 T02350112  RH  046%=      5-min Rain = 0
KEN1 040428Z 10009KT 23/11 A3001 RMK A01 T02340113  RH  046%=      5-min Rain = 0
KEN1 040429Z 10010KT 23/11 A3001 RMK A01 T02340113  RH  047%=      5-min Rain = 0
KEN1 040430Z 10010KT 23/11 A3002 RMK A01 T02340113  RH  047%=      5-min Rain = 0
KEN1 040431Z 10009KT 23/11 A3002 RMK A01 T02340113  RH  046%=      5-min Rain = 0
KEN1 040432Z 11006KT 24/11 A3002 RMK A01 T02350113  RH  046%=      5-min Rain = 0
KEN1 040433Z 11007KT 24/11 A3002 RMK A01 T02350113  RH  046%=      5-min Rain = 0
KEN1 040434Z 11007KT 23/11 A3002 RMK A01 T02340113  RH  047%=      5-min Rain = 0
KEN1 040435Z 12007KT 23/11 A3002 RMK A01 T02330114  RH  047%=      5-min Rain = 0
KEN1 040436Z 12008KT 23/12 A3002 RMK A01 T02320115  RH  048%=      5-min Rain = 0
KEN1 040437Z 12007KT 23/12 A3002 RMK A01 T02310115  RH  048%=      5-min Rain = 0
KEN1 040438Z 12009KT 23/12 A3002 RMK A01 T02310115  RH  048%=      5-min Rain = 0
KEN1 040439Z 12011KT 23/12 A3002 RMK A01 T02320116  RH  048%=      5-min Rain = 0
KEN1 040440Z 11012KT 23/12 A3002 RMK A01 T02330117  RH  048%=      5-min Rain = 0
KEN1 040441Z 11010KT 23/12 A3001 RMK A01 T02330117  RH  048%=      5-min Rain = 0
KEN1 040442Z 11012G17KT 23/12 A3001 RMK A01 T02330116  RH  048%=      5-min Rain = 0
KEN1 040443Z 11014KT 23/12 A3001 RMK A01 T02330117  RH  048%=      5-min Rain = 0
KEN1 040444Z 11013KT 23/12 A3001 RMK A01 T02340117  RH  048%=      5-min Rain = 0
KEN1 040445Z 10013KT 24/12 A3001 RMK A01 T02350117  RH  048%=      5-min Rain = 0
KEN1 040446Z 10013KT 23/12 A3001 RMK A01 T02340117  RH  048%=      5-min Rain = 0
KEN1 040447Z 10013KT 23/12 A3001 RMK A01 T02330117  RH  048%=      5-min Rain = 0
KEN1 040448Z 10013KT 23/12 A3001 RMK A01 T02330117  RH  048%=      5-min Rain = 0
KEN1 040449Z 10012KT 23/12 A3001 RMK A01 T02330117  RH  048%=      5-min Rain = 0
KEN1 040450Z 10013KT 23/12 A3001 RMK A01 T02320117  RH  048%=      5-min Rain = 0
KEN1 040451Z 10013KT 23/12 A3001 RMK A01 T02320116  RH  048%=      5-min Rain = 0
KEN1 040452Z 10012KT 23/12 A3001 RMK A01 T02320116  RH  048%=      5-min Rain = 0
KEN1 040453Z 10013KT 23/12 A3001 RMK A01 T02310116  RH  048%=      5-min Rain = 0
KEN1 040454Z 10014KT 23/12 A3001 RMK A01 T02310116  RH  048%=      5-min Rain = 0
KEN1 040455Z 10012KT 23/12 A3001 RMK A01 T02320116  RH  048%=      5-min Rain = 0
KEN1 040456Z 10011G16KT 23/12 A3001 RMK A01 T02320116  RH  048%=      5-min Rain = 0
KEN1 040457Z 10012KT 23/12 A3001 RMK A01 T02310116  RH  048%=      5-min Rain = 0
KEN1 040458Z 10013KT 23/12 A3001 RMK A01 T02310116  RH  048%=      5-min Rain = 0
KEN1 040459Z 10012KT 23/12 A3001 RMK A01 T02310116  RH  048%=      5-min Rain = 0

Page generated in 0.0697 seconds.